Wetterdaten: Sonntag, 06.07.2014
Datum Zeit Temp. Aussen +5cm Feuchte Auss Luftdruck Regen Sonnenschein Regendauer UV Solar Windben
06.07.2014 00:00 18,7 C 17,2 C 97 % 1008,6 hPa 0,0 l/m 0 min 0 min 0,0 UV-I 0 W/m 0,0 km/h (0 Bft)
06.07.2014 00:02 18,7 C 17,2 C 97 % 1008,5 hPa 0,0 l/m 0 min 0 min 0,0 UV-I 0 W/m 4,2 km/h (1 Bft)
06.07.2014 00:05 18,7 C 17,2 C 97 % 1008,5 hPa 0,0 l/m 0 min 0 min 0,0 UV-I 0 W/m 2,1 km/h (1 Bft)
06.07.2014 00:06 18,7 C 17,2 C 97 % 1008,5 hPa 0,0 l/m 0 min 0 min 0,0 UV-I 0 W/m 6,3 km/h (2 Bft)
06.07.2014 00:08 18,7 C 17,2 C 97 % 1008,5 hPa 0,0 l/m 0 min 0 min 0,0 UV-I 0 W/m 6,3 km/h (2 Bft)
06.07.2014 00:10 18,7 C 17,2 C 97 % 1008,6 hPa 0,0 l/m 0 min 0 min 0,0 UV-I 0 W/m 2,1 km/h (1 Bft)
06.07.2014 00:12 18,7 C 17,2 C 97 % 1008,6 hPa 0,0 l/m 0 min 0 min 0,0 UV-I 0 W/m 0,0 km/h (0 Bft)
06.07.2014 00:14 18,7 C 17,2 C 97 % 1008,6 hPa 0,0 l/m 0 min 0 min 0,0 UV-I 0 W/m 0,0 km/h (0 Bft)
06.07.2014 00:16 18,7 C 17,2 C 97 % 1008,6 hPa 0,0 l/m 0 min 0 min 0,0 UV-I 0 W/m 2,1 km/h (1 Bft)
06.07.2014 00:18 18,6 C 17,2 C 97 % 1008,6 hPa 0,0 l/m 0 min 0 min 0,0 UV-I 0 W/m 2,1 km/h (1 Bft)
06.07.2014 00:20 18,6 C 17,2 C 97 % 1008,6 hPa 0,0 l/m 0 min 0 min 0,0 UV-I 0 W/m 8,4 km/h (2 Bft)
06.07.2014 00:22 18,6 C 17,2 C 98 % 1008,6 hPa 0,0 l/m 0 min 0 min 0,0 UV-I 0 W/m 8,4 km/h (2 Bft)
06.07.2014 00:24 18,6 C 17,2 C 98 % 1008,6 hPa 0,0 l/m 0 min 0 min 0,0 UV-I 0 W/m 6,3 km/h (2 Bft)
06.07.2014 00:26 18,6 C 17,2 C 98 % 1008,6 hPa 0,0 l/m 0 min 0 min 0,0 UV-I 0 W/m 6,3 km/h (2 Bft)
06.07.2014 00:28 18,6 C 17,2 C 98 % 1008,5 hPa 0,0 l/m 0 min 0 min 0,0 UV-I 0 W/m 0,0 km/h (0 Bft)
06.07.2014 00:30 18,6 C 17,2 C 98 % 1008,6 hPa 0,0 l/m 0 min 0 min 0,0 UV-I 0 W/m 2,1 km/h (1 Bft)
06.07.2014 00:32 18,6 C 17,2 C 98 % 1008,5 hPa 0,0 l/m 0 min 0 min 0,0 UV-I 0 W/m 6,3 km/h (2 Bft)
06.07.2014 00:34 18,6 C 17,2 C 98 % 1008,6 hPa 0,0 l/m 0 min 0 min 0,0 UV-I 0 W/m 6,3 km/h (2 Bft)
06.07.2014 00:36 18,6 C 17,2 C 98 % 1008,5 hPa 0,0 l/m 0 min 0 min 0,0 UV-I 0 W/m 10,5 km/h (2 Bft)
06.07.2014 00:38 18,6 C 17,2 C 98 % 1008,5 hPa 0,0 l/m 0 min 0 min 0,0 UV-I 0 W/m 10,5 km/h (2 Bft)
06.07.2014 00:40 18,6 C 17,2 C 98 % 1008,5 hPa 0,0 l/m 0 min 0 min 0,0 UV-I 0 W/m 8,4 km/h (2 Bft)
06.07.2014 00:42 18,6 C 17,2 C 98 % 1008,4 hPa 0,0 l/m 0 min 0 min 0,0 UV-I 0 W/m 0,0 km/h (0 Bft)
06.07.2014 00:44 18,6 C 17,2 C 98 % 1008,5 hPa 0,0 l/m 0 min 0 min 0,0 UV-I 0 W/m 2,1 km/h (1 Bft)
06.07.2014 00:46 18,6 C 17,2 C 98 % 1008,5 hPa 0,0 l/m 0 min 0 min 0,0 UV-I 0 W/m 4,2 km/h (1 Bft)
06.07.2014 00:48 18,6 C 17,2 C 98 % 1008,5 hPa 0,0 l/m 0 min 0 min 0,0 UV-I 0 W/m 10,5 km/h (2 Bft)
06.07.2014 00:50 18,6 C 17,2 C 98 % 1008,5 hPa 0,0 l/m 0 min 0 min 0,0 UV-I 0 W/m 8,4 km/h (2 Bft)
06.07.2014 00:52 18,6 C 17,2 C 98 % 1008,5 hPa 0,0 l/m 0 min 0 min 0,0 UV-I 0 W/m 8,4 km/h (2 Bft)
06.07.2014 00:54 18,6 C 17,2 C 98 % 1008,5 hPa 0,0 l/m 0 min 0 min 0,0 UV-I 0 W/m 6,3 km/h (2 Bft)
06.07.2014 00:56 18,6 C 17,2 C 98 % 1008,5 hPa 0,0 l/m 0 min 0 min 0,0 UV-I 0 W/m 12,6 km/h (3 Bft)
06.07.2014 00:58 18,5 C 17,2 C 98 % 1008,4 hPa 0,0 l/m 0 min 0 min 0,0 UV-I 0 W/m 8,4 km/h (2 Bft)
06.07.2014 01:00 18,5 C 17,2 C 98 % 1008,4 hPa 0,0 l/m 0 min 0 min 0,0 UV-I 0 W/m 8,4 km/h (2 Bft)
06.07.2014 01:02 18,5 C 17,2 C 98 % 1008,5 hPa 0,0 l/m 0 min 0 min 0,0 UV-I 0 W/m 4,2 km/h (1 Bft)
06.07.2014 01:04 18,5 C 17,2 C 98 % 1008,4 hPa 0,0 l/m 0 min 0 min 0,0 UV-I 0 W/m 0,0 km/h (0 Bft)
06.07.2014 01:06 18,5 C 17,2 C 98 % 1008,4 hPa 0,0 l/m 0 min 0 min 0,0 UV-I 0 W/m 8,4 km/h (2 Bft)
06.07.2014 01:08 18,5 C 17,2 C 98 % 1008,4 hPa 0,0 l/m 0 min 0 min 0,0 UV-I 0 W/m 0,0 km/h (0 Bft)
06.07.2014 01:10 18,5 C 17,2 C 98 % 1008,4 hPa 0,0 l/m 0 min 0 min 0,0 UV-I 0 W/m 0,0 km/h (0 Bft)
06.07.2014 01:12 18,5 C 17,2 C 98 % 1008,4 hPa 0,0 l/m 0 min 0 min 0,0 UV-I 0 W/m 4,2 km/h (1 Bft)
06.07.2014 01:14 18,4 C 17,2 C 98 % 1008,4 hPa 0,0 l/m 0 min 0 min 0,0 UV-I 0 W/m 0,0 km/h (0 Bft)
06.07.2014 01:16 18,4 C 17,2 C 98 % 1008,3 hPa 0,0 l/m 0 min 0 min 0,0 UV-I 0 W/m 0,0 km/h (0 Bft)
06.07.2014 01:18 18,4 C 17,2 C 98 % 1008,3 hPa 0,0 l/m 0 min 0 min 0,0 UV-I 0 W/m 6,3 km/h (2 Bft)
06.07.2014 01:20 18,4 C 17,2 C 98 % 1008,3 hPa 0,0 l/m 0 min 0 min 0,0 UV-I 0 W/m 2,1 km/h (1 Bft)
06.07.2014 01:22 18,4 C 17,2 C 98 % 1008,3 hPa 0,0 l/m 0 min 0 min 0,0 UV-I 0 W/m 10,5 km/h (2 Bft)
06.07.2014 01:24 18,4 C 17,2 C 98 % 1008,3 hPa 0,0 l/m 0 min 0 min 0,0 UV-I 0 W/m 8,4 km/h (2 Bft)
06.07.2014 01:26 18,4 C 17,2 C 98 % 1008,3 hPa 0,0 l/m 0 min 0 min 0,0 UV-I 0 W/m 6,3 km/h (2 Bft)
06.07.2014 01:28 18,4 C 17,2 C 98 % 1008,2 hPa 0,0 l/m 0 min 0 min 0,0 UV-I 0 W/m 6,3 km/h (2 Bft)
06.07.2014 01:30 18,4 C 17,2 C 98 % 1008,3 hPa 0,0 l/m 0 min 0 min 0,0 UV-I 0 W/m 2,1 km/h (1 Bft)
06.07.2014 01:32 18,4 C 17,2 C 98 % 1008,3 hPa 0,0 l/m 0 min 0 min 0,0 UV-I 0 W/m 6,3 km/h (2 Bft)
06.07.2014 01:34 18,4 C 17,2 C 98 % 1008,2 hPa 0,0 l/m 0 min 0 min 0,0 UV-I 0 W/m 12,6 km/h (3 Bft)
06.07.2014 01:36 18,4 C 17,2 C 98 % 1008,2 hPa 0,0 l/m 0 min 0 min 0,0 UV-I 0 W/m 12,6 km/h (3 Bft)
06.07.2014 01:38 18,4 C 17,2 C 98 % 1008,2 hPa 0,0 l/m 0 min 0 min 0,0 UV-I 0 W/m 14,6 km/h (3 Bft)
06.07.2014 01:40 18,4 C 17,2 C 98 % 1008,2 hPa 0,0 l/m 0 min 0 min 0,0 UV-I 0 W/m 10,5 km/h (2 Bft)
06.07.2014 01:42 18,4 C 17,2 C 98 % 1008,2 hPa 0,0 l/m 0 min 0 min 0,0 UV-I 0 W/m 12,6 km/h (3 Bft)
06.07.2014 01:44 18,3 C 16,7 C 98 % 1008,2 hPa 0,0 l/m 0 min 0 min 0,0 UV-I 0 W/m 8,4 km/h (2 Bft)
06.07.2014 01:46 18,3 C 16,7 C 98 % 1008,2 hPa 0,0 l/m 0 min 0 min 0,0 UV-I 0 W/m 8,4 km/h (2 Bft)
06.07.2014 01:48 18,3 C 16,7 C 98 % 1008,2 hPa 0,0 l/m 0 min 0 min 0,0 UV-I 0 W/m 2,1 km/h (1 Bft)
06.07.2014 01:50 18,3 C 16,7 C 98 % 1008,1 hPa 0,0 l/m 0 min 0 min 0,0 UV-I 0 W/m 6,3 km/h (2 Bft)
06.07.2014 01:52 18,3 C 16,7 C 98 % 1008,2 hPa 0,0 l/m 0 min 0 min 0,0 UV-I 0 W/m 8,4 km/h (2 Bft)
06.07.2014 01:54 18,3 C 16,7 C 98 % 1008,2 hPa 0,0 l/m 0 min 0 min 0,0 UV-I 0 W/m 12,6 km/h (3 Bft)
06.07.2014 01:56 18,3 C 16,7 C 98 % 1008,2 hPa 0,0 l/m 0 min 0 min 0,0 UV-I 0 W/m 8,4 km/h (2 Bft)
06.07.2014 01:58 18,3 C 16,7 C 98 % 1008,1 hPa 0,0 l/m 0 min 0 min 0,0 UV-I 0 W/m 10,5 km/h (2 Bft)
06.07.2014 02:00 18,3 C 16,7 C 98 % 1008,2 hPa 0,0 l/m 0 min 0 min 0,0 UV-I 0 W/m 10,5 km/h (2 Bft)
06.07.2014 02:02 18,3 C 16,7 C 98 % 1008,2 hPa 0,0 l/m 0 min 0 min 0,0 UV-I 0 W/m 10,5 km/h (2 Bft)
06.07.2014 02:04 18,3 C 16,7 C 98 % 1008,2 hPa 0,0 l/m 0 min 0 min 0,0 UV-I 0 W/m 12,6 km/h (3 Bft)
06.07.2014 02:06 18,3 C 16,7 C 98 % 1008,1 hPa 0,0 l/m 0 min 0 min 0,0 UV-I 0 W/m 12,6 km/h (3 Bft)
06.07.2014 02:08 18,3 C 16,7 C 98 % 1008,1 hPa 0,0 l/m 0 min 0 min 0,0 UV-I 0 W/m 12,6 km/h (3 Bft)
06.07.2014 02:10 18,3 C 16,7 C 98 % 1008,1 hPa 0,0 l/m 0 min 0 min 0,0 UV-I 0 W/m 4,2 km/h (1 Bft)
06.07.2014 02:12 18,3 C 16,7 C 98 % 1008,2 hPa 0,0 l/m 0 min 0 min 0,0 UV-I 0 W/m 8,4 km/h (2 Bft)
06.07.2014 02:14 18,3 C 16,7 C 98 % 1008,2 hPa 0,0 l/m 0 min 0 min 0,0 UV-I 0 W/m 12,6 km/h (3 Bft)
06.07.2014 02:16 18,3 C 16,7 C 98 % 1008,1 hPa 0,0 l/m 0 min 0 min 0,0 UV-I 0 W/m 8,4 km/h (2 Bft)
06.07.2014 02:18 18,3 C 16,7 C 98 % 1008,2 hPa 0,0 l/m 0 min 0 min 0,0 UV-I 0 W/m 12,6 km/h (3 Bft)
06.07.2014 02:20 18,3 C 16,7 C 98 % 1008,2 hPa 0,0 l/m 0 min 0 min 0,0 UV-I 0 W/m 8,4 km/h (2 Bft)
06.07.2014 02:22 18,3 C 16,7 C 98 % 1008,1 hPa 0,0 l/m 0 min 0 min 0,0 UV-I 0 W/m 12,6 km/h (3 Bft)
06.07.2014 02:24 18,3 C 16,7 C 98 % 1008,1 hPa 0,0 l/m 0 min 0 min 0,0 UV-I 0 W/m 12,6 km/h (3 Bft)
06.07.2014 02:26 18,3 C 16,7 C 98 % 1008,1 hPa 0,0 l/m 0 min 0 min 0,0 UV-I 0 W/m 10,5 km/h (2 Bft)
06.07.2014 02:28 18,3 C 16,7 C 98 % 1008,1 hPa 0,0 l/m 0 min 0 min 0,0 UV-I 0 W/m 12,6 km/h (3 Bft)
06.07.2014 02:30 18,3 C 16,7 C 98 % 1008,0 hPa 0,0 l/m 0 min 0 min 0,0 UV-I 0 W/m 10,5 km/h (2 Bft)
06.07.2014 02:32 18,3 C 16,7 C 98 % 1008,0 hPa 0,0 l/m 0 min 0 min 0,0 UV-I 0 W/m 6,3 km/h (2 Bft)
06.07.2014 02:34 18,3 C 16,7 C 98 % 1008,1 hPa 0,0 l/m 0 min 0 min 0,0 UV-I 0 W/m 12,6 km/h (3 Bft)
06.07.2014 02:36 18,3 C 16,7 C 98 % 1008,0 hPa 0,0 l/m 0 min 0 min 0,0 UV-I 0 W/m 6,3 km/h (2 Bft)
06.07.2014 02:38 18,3 C 16,7 C 98 % 1008,1 hPa 0,0 l/m 0 min 0 min 0,0 UV-I 0 W/m 12,6 km/h (3 Bft)
06.07.2014 02:40 18,3 C 16,7 C 98 % 1008,0 hPa 0,0 l/m 0 min 0 min 0,0 UV-I 0 W/m 10,5 km/h (2 Bft)
06.07.2014 02:42 18,2 C 16,7 C 98 % 1008,0 hPa 0,0 l/m 0 min 0 min 0,0 UV-I 0 W/m 10,5 km/h (2 Bft)
06.07.2014 02:44 18,2 C 16,7 C 98 % 1008,0 hPa 0,0 l/m 0 min 0 min 0,0 UV-I 0 W/m 6,3 km/h (2 Bft)
06.07.2014 02:46 18,2 C 16,7 C 98 % 1008,0 hPa 0,0 l/m 0 min 0 min 0,0 UV-I 0 W/m 10,5 km/h (2 Bft)
06.07.2014 02:48 18,2 C 16,7 C 98 % 1007,9 hPa 0,0 l/m 0 min 0 min 0,0 UV-I 0 W/m 14,6 km/h (3 Bft)
06.07.2014 02:50 18,1 C 16,7 C 98 % 1007,9 hPa 0,0 l/m 0 min 0 min 0,0 UV-I 0 W/m 10,5 km/h (2 Bft)
06.07.2014 02:52 18,1 C 16,7 C 98 % 1007,9 hPa 0,0 l/m 0 min 0 min 0,0 UV-I 0 W/m 14,6 km/h (3 Bft)
06.07.2014 02:54 18,1 C 16,7 C 98 % 1007,9 hPa 0,0 l/m 0 min 0 min 0,0 UV-I 0 W/m 12,6 km/h (3 Bft)
06.07.2014 02:56 18,1 C 16,7 C 98 % 1007,9 hPa 0,0 l/m 0 min 0 min 0,0 UV-I 0 W/m 12,6 km/h (3 Bft)
06.07.2014 02:58 18,0 C 16,7 C 98 % 1007,9 hPa 0,0 l/m 0 min 0 min 0,0 UV-I 0 W/m 8,4 km/h (2 Bft)
06.07.2014 03:00 18,0 C 16,1 C 98 % 1007,9 hPa 0,0 l/m 0 min 0 min 0,0 UV-I 0 W/m 10,5 km/h (2 Bft)
06.07.2014 03:02 17,9 C 16,1 C 98 % 1007,8 hPa 0,0 l/m 0 min 0 min 0,0 UV-I 0 W/m 10,5 km/h (2 Bft)
06.07.2014 03:04 17,9 C 16,1 C 98 % 1007,9 hPa 0,0 l/m 0 min 0 min 0,0 UV-I 0 W/m 10,5 km/h (2 Bft)
06.07.2014 03:06 17,9 C 16,1 C 98 % 1007,9 hPa 0,0 l/m 0 min 0 min 0,0 UV-I 0 W/m 8,4 km/h (2 Bft)
06.07.2014 03:08 17,9 C 16,1 C 98 % 1007,9 hPa 0,0 l/m 0 min 0 min 0,0 UV-I 0 W/m 12,6 km/h (3 Bft)
06.07.2014 03:10 17,9 C 16,1 C 98 % 1007,8 hPa 0,0 l/m 0 min 0 min 0,0 UV-I 0 W/m 12,6 km/h (3 Bft)
06.07.2014 03:12 17,9 C 16,1 C 98 % 1007,9 hPa 0,0 l/m 0 min 0 min 0,0 UV-I 0 W/m 8,4 km/h (2 Bft)
06.07.2014 03:14 17,9 C 16,1 C 98 % 1007,8 hPa 0,0 l/m 0 min 0 min 0,0 UV-I 0 W/m 12,6 km/h (3 Bft)
06.07.2014 03:16 17,8 C 16,1 C 98 % 1007,8 hPa 0,0 l/m 0 min 0 min 0,0 UV-I 0 W/m 10,5 km/h (2 Bft)
06.07.2014 03:18 17,8 C 16,1 C 98 % 1007,8 hPa 0,0 l/m 0 min 0 min 0,0 UV-I 0 W/m 10,5 km/h (2 Bft)
06.07.2014 03:20 17,8 C 16,1 C 98 % 1007,8 hPa 0,0 l/m 0 min 0 min 0,0 UV-I 0 W/m 4,2 km/h (1 Bft)
06.07.2014 03:22 17,8 C 16,1 C 98 % 1007,8 hPa 0,0 l/m 0 min 0 min 0,0 UV-I 0 W/m 8,4 km/h (2 Bft)
06.07.2014 03:24 17,8 C 16,1 C 98 % 1007,7 hPa 0,0 l/m 0 min 0 min 0,0 UV-I 0 W/m 14,6 km/h (3 Bft)
06.07.2014 03:26 17,8 C 16,1 C 98 % 1007,8 hPa 0,0 l/m 0 min 0 min 0,0 UV-I 0 W/m 14,6 km/h (3 Bft)
06.07.2014 03:28 17,7 C 16,1 C 98 % 1007,8 hPa 0,0 l/m 0 min 0 min 0,0 UV-I 0 W/m 10,5 km/h (2 Bft)
06.07.2014 03:30 17,7 C 16,1 C 98 % 1007,8 hPa 0,0 l/m 0 min 0 min 0,0 UV-I 0 W/m 12,6 km/h (3 Bft)
06.07.2014 03:32 17,7 C 16,1 C 98 % 1007,7 hPa 0,0 l/m 0 min 0 min 0,0 UV-I 0 W/m 16,7 km/h (3 Bft)
06.07.2014 03:34 17,7 C 16,1 C 98 % 1007,7 hPa 0,0 l/m 0 min 0 min 0,0 UV-I 0 W/m 12,6 km/h (3 Bft)
06.07.2014 03:36 17,7 C 16,1 C 98 % 1007,8 hPa 0,0 l/m 0 min 0 min 0,0 UV-I 0 W/m 16,7 km/h (3 Bft)
06.07.2014 03:38 17,7 C 16,1 C 98 % 1007,8 hPa 0,0 l/m 0 min 0 min 0,0 UV-I 0 W/m 14,6 km/h (3 Bft)
06.07.2014 03:40 17,7 C 16,1 C 98 % 1007,7 hPa 0,0 l/m 0 min 0 min 0,0 UV-I 0 W/m 12,6 km/h (3 Bft)
06.07.2014 03:42 17,8 C 16,1 C 98 % 1007,7 hPa 0,0 l/m 0 min 0 min 0,0 UV-I 0 W/m 6,3 km/h (2 Bft)
06.07.2014 03:44 17,7 C 16,1 C 98 % 1007,8 hPa 0,0 l/m 0 min 0 min 0,0 UV-I 0 W/m 14,6 km/h (3 Bft)
06.07.2014 03:46 17,7 C 16,1 C 98 % 1007,8 hPa 0,0 l/m 0 min 0 min 0,0 UV-I 0 W/m 12,6 km/h (3 Bft)
06.07.2014 03:48 17,7 C 16,1 C 98 % 1007,8 hPa 0,0 l/m 0 min 0 min 0,0 UV-I 0 W/m 14,6 km/h (3 Bft)
06.07.2014 03:50 17,7 C 16,1 C 98 % 1007,7 hPa 0,0 l/m 0 min 0 min 0,0 UV-I 0 W/m 20,9 km/h (4 Bft)
06.07.2014 03:52 17,7 C 16,1 C 98 % 1007,8 hPa 0,0 l/m 0 min 0 min 0,0 UV-I 0 W/m 12,6 km/h (3 Bft)
06.07.2014 03:54 17,7 C 16,1 C 98 % 1007,8 hPa 0,0 l/m 0 min 0 min 0,0 UV-I 0 W/m 18,8 km/h (3 Bft)
06.07.2014 03:56 17,7 C 16,1 C 98 % 1007,8 hPa 0,0 l/m 0 min 0 min 0,0 UV-I 0 W/m 14,6 km/h (3 Bft)
06.07.2014 03:58 17,7 C 16,1 C 98 % 1007,8 hPa 0,0 l/m 0 min 0 min 0,0 UV-I 0 W/m 12,6 km/h (3 Bft)
06.07.2014 04:00 17,7 C 16,1 C 98 % 1007,7 hPa 0,0 l/m 0 min 0 min 0,0 UV-I 0 W/m 14,6 km/h (3 Bft)
06.07.2014 04:05 17,7 C 16,1 C 98 % 1007,7 hPa 0,0 l/m 0 min 0 min 0,0 UV-I 0 W/m 14,6 km/h (3 Bft)
06.07.2014 04:06 17,7 C 16,1 C 98 % 1007,7 hPa 0,0 l/m 0 min 0 min 0,0 UV-I 0 W/m 12,6 km/h (3 Bft)
06.07.2014 04:08 17,7 C 16,1 C 98 % 1007,7 hPa 0,0 l/m 0 min 0 min 0,0 UV-I 0 W/m 12,6 km/h (3 Bft)
06.07.2014 04:10 17,7 C 16,1 C 98 % 1007,7 hPa 0,0 l/m 0 min 0 min 0,0 UV-I 0 W/m 14,6 km/h (3 Bft)
06.07.2014 04:12 17,7 C 16,1 C 98 % 1007,7 hPa 0,0 l/m 0 min 0 min 0,0 UV-I 0 W/m 16,7 km/h (3 Bft)
06.07.2014 04:14 17,7 C 16,1 C 98 % 1007,7 hPa 0,0 l/m 0 min 0 min 0,0 UV-I 0 W/m 16,7 km/h (3 Bft)
06.07.2014 04:16 17,7 C 16,1 C 98 % 1007,7 hPa 0,0 l/m 0 min 0 min 0,0 UV-I 0 W/m 12,6 km/h (3 Bft)
06.07.2014 04:18 17,7 C 16,1 C 98 % 1007,7 hPa 0,0 l/m 0 min 0 min 0,0 UV-I 0 W/m 14,6 km/h (3 Bft)
06.07.2014 04:20 17,7 C 16,1 C 98 % 1007,7 hPa 0,0 l/m 0 min 0 min 0,0 UV-I 0 W/m 20,9 km/h (4 Bft)
06.07.2014 04:22 17,6 C 16,1 C 98 % 1007,7 hPa 0,0 l/m 0 min 0 min 0,0 UV-I 0 W/m 14,6 km/h (3 Bft)
06.07.2014 04:24 17,6 C 16,1 C 98 % 1007,7 hPa 0,0 l/m 0 min 0 min 0,0 UV-I 0 W/m 14,6 km/h (3 Bft)
06.07.2014 04:26 17,6 C 16,1 C 98 % 1007,6 hPa 0,0 l/m 0 min 0 min 0,0 UV-I 0 W/m 14,6 km/h (3 Bft)
06.07.2014 04:28 17,6 C 16,1 C 98 % 1007,6 hPa 0,0 l/m 0 min 0 min 0,0 UV-I 0 W/m 14,6 km/h (3 Bft)
06.07.2014 04:30 17,6 C 16,1 C 98 % 1007,7 hPa 0,0 l/m 0 min 0 min 0,0 UV-I 0 W/m 14,6 km/h (3 Bft)
06.07.2014 04:32 17,6 C 16,1 C 98 % 1007,7 hPa 0,0 l/m 0 min 0 min 0,0 UV-I 0 W/m 14,6 km/h (3 Bft)
06.07.2014 04:34 17,6 C 16,1 C 98 % 1007,7 hPa 0,0 l/m 0 min 0 min 0,0 UV-I 0 W/m 14,6 km/h (3 Bft)
06.07.2014 04:36 17,6 C 16,1 C 97 % 1007,7 hPa 0,0 l/m 0 min 0 min 0,0 UV-I 0 W/m 12,6 km/h (3 Bft)
06.07.2014 04:38 17,6 C 16,1 C 97 % 1007,7 hPa 0,0 l/m 0 min 0 min 0,0 UV-I 0 W/m 16,7 km/h (3 Bft)
06.07.2014 04:40 17,5 C 16,1 C 97 % 1007,6 hPa 0,0 l/m 0 min 0 min 0,0 UV-I 0 W/m 14,6 km/h (3 Bft)
06.07.2014 04:42 17,5 C 16,1 C 98 % 1007,7 hPa 0,0 l/m 0 min 0 min 0,0 UV-I 0 W/m 14,6 km/h (3 Bft)
06.07.2014 04:44 17,5 C 16,1 C 97 % 1007,7 hPa 0,0 l/m 0 min 0 min 0,0 UV-I 0 W/m 18,8 km/h (3 Bft)
06.07.2014 04:46 17,4 C 15,6 C 97 % 1007,7 hPa 0,0 l/m 0 min 0 min 0,0 UV-I 0 W/m 8,4 km/h (2 Bft)
06.07.2014 04:48 17,4 C 15,6 C 97 % 1007,7 hPa 0,0 l/m 0 min 0 min 0,0 UV-I 0 W/m 14,6 km/h (3 Bft)
06.07.2014 04:50 17,4 C 15,6 C 97 % 1007,7 hPa 0,0 l/m 0 min 0 min 0,0 UV-I 0 W/m 10,5 km/h (2 Bft)
06.07.2014 04:52 17,4 C 15,6 C 97 % 1007,6 hPa 0,0 l/m 0 min 0 min 0,0 UV-I 0 W/m 14,6 km/h (3 Bft)
06.07.2014 04:54 17,4 C 15,6 C 97 % 1007,7 hPa 0,0 l/m 0 min 0 min 0,0 UV-I 0 W/m 14,6 km/h (3 Bft)
06.07.2014 04:56 17,4 C 15,6 C 97 % 1007,7 hPa 0,0 l/m 0 min 0 min 0,0 UV-I 0 W/m 14,6 km/h (3 Bft)
06.07.2014 04:58 17,4 C 15,6 C 97 % 1007,7 hPa 0,0 l/m 0 min 0 min 0,0 UV-I 0 W/m 10,5 km/h (2 Bft)
06.07.2014 05:00 17,4 C 15,6 C 97 % 1007,7 hPa 0,0 l/m 0 min 0 min 0,0 UV-I 0 W/m 8,4 km/h (2 Bft)
06.07.2014 05:02 17,4 C 15,6 C 97 % 1007,7 hPa 0,0 l/m 0 min 0 min 0,0 UV-I 0 W/m 12,6 km/h (3 Bft)
06.07.2014 05:04 17,4 C 15,6 C 97 % 1007,7 hPa 0,0 l/m 0 min 0 min 0,0 UV-I 0 W/m 12,6 km/h (3 Bft)
06.07.2014 05:06 17,4 C 15,6 C 97 % 1007,7 hPa 0,0 l/m 0 min 0 min 0,0 UV-I 0 W/m 14,6 km/h (3 Bft)
06.07.2014 05:08 17,4 C 15,6 C 97 % 1007,7 hPa 0,0 l/m 0 min 0 min 0,0 UV-I 0 W/m 8,4 km/h (2 Bft)
06.07.2014 05:10 17,4 C 15,6 C 97 % 1007,7 hPa 0,0 l/m 0 min 0 min 0,0 UV-I 0 W/m 12,6 km/h (3 Bft)
06.07.2014 05:12 17,4 C 15,6 C 97 % 1007,7 hPa 0,0 l/m 0 min 0 min 0,0 UV-I 0 W/m 10,5 km/h (2 Bft)
06.07.2014 05:14 17,4 C 15,6 C 97 % 1007,7 hPa 0,0 l/m 0 min 0 min 0,0 UV-I 0 W/m 8,4 km/h (2 Bft)
06.07.2014 05:16 17,3 C 15,6 C 97 % 1007,7 hPa 0,0 l/m 0 min 0 min 0,0 UV-I 0 W/m 10,5 km/h (2 Bft)
06.07.2014 05:18 17,3 C 15,6 C 97 % 1007,7 hPa 0,0 l/m 0 min 0 min 0,0 UV-I 5 W/m 12,6 km/h (3 Bft)
06.07.2014 05:20 17,3 C 15,6 C 97 % 1007,7 hPa 0,0 l/m 0 min 0 min 0,0 UV-I 5 W/m 8,4 km/h (2 Bft)
06.07.2014 05:22 17,3 C 15,6 C 97 % 1007,7 hPa 0,0 l/m 0 min 0 min 0,0 UV-I 7 W/m 6,3 km/h (2 Bft)
06.07.2014 05:24 17,3 C 15,6 C 97 % 1007,6 hPa 0,0 l/m 0 min 0 min 0,0 UV-I 7 W/m 8,4 km/h (2 Bft)
06.07.2014 05:26 17,3 C 15,6 C 97 % 1007,5 hPa 0,0 l/m 0 min 0 min 0,0 UV-I 7 W/m 8,4 km/h (2 Bft)
06.07.2014 05:28 17,3 C 15,6 C 97 % 1007,6 hPa 0,0 l/m 0 min 0 min 0,0 UV-I 7 W/m 8,4 km/h (2 Bft)
06.07.2014 05:30 17,3 C 15,6 C 97 % 1007,5 hPa 0,0 l/m 0 min 0 min 0,0 UV-I 7 W/m 6,3 km/h (2 Bft)
06.07.2014 05:32 17,3 C 15,6 C 97 % 1007,6 hPa 0,0 l/m 0 min 0 min 0,0 UV-I 9 W/m 2,1 km/h (1 Bft)
06.07.2014 05:34 17,3 C 15,6 C 97 % 1007,6 hPa 0,0 l/m 0 min 0 min 0,0 UV-I 9 W/m 8,4 km/h (2 Bft)
06.07.2014 05:36 17,3 C 15,6 C 97 % 1007,6 hPa 0,0 l/m 0 min 0 min 0,0 UV-I 11 W/m 4,2 km/h (1 Bft)
06.07.2014 05:38 17,2 C 15,6 C 97 % 1007,6 hPa 0,0 l/m 0 min 0 min 0,0 UV-I 12 W/m 8,4 km/h (2 Bft)
06.07.2014 05:40 17,2 C 15,6 C 97 % 1007,6 hPa 0,0 l/m 2 min 0 min 0,0 UV-I 14 W/m 2,1 km/h (1 Bft)
06.07.2014 05:42 17,2 C 15,6 C 97 % 1007,6 hPa 0,0 l/m 2 min 0 min 0,0 UV-I 16 W/m 2,1 km/h (1 Bft)
06.07.2014 05:44 17,2 C 15,6 C 97 % 1007,6 hPa 0,0 l/m 2 min 0 min 0,0 UV-I 18 W/m 6,3 km/h (2 Bft)
06.07.2014 05:46 17,2 C 15,6 C 97 % 1007,7 hPa 0,0 l/m 2 min 0 min 0,0 UV-I 19 W/m 6,3 km/h (2 Bft)
06.07.2014 05:48 17,2 C 15,6 C 97 % 1007,7 hPa 0,0 l/m 2 min 0 min 0,0 UV-I 19 W/m 0,0 km/h (0 Bft)
06.07.2014 05:50 17,2 C 15,6 C 97 % 1007,6 hPa 0,0 l/m 2 min 0 min 0,0 UV-I 21 W/m 8,4 km/h (2 Bft)
06.07.2014 05:52 17,2 C 15,6 C 97 % 1007,7 hPa 0,0 l/m 2 min 0 min 0,0 UV-I 26 W/m 4,2 km/h (1 Bft)
06.07.2014 05:54 17,2 C 15,6 C 97 % 1007,7 hPa 0,0 l/m 2 min 0 min 0,0 UV-I 33 W/m 8,4 km/h (2 Bft)
06.07.2014 05:56 17,2 C 15,6 C 97 % 1007,6 hPa 0,0 l/m 2 min 0 min 0,0 UV-I 39 W/m 6,3 km/h (2 Bft)
06.07.2014 05:58 17,3 C 15,6 C 97 % 1007,6 hPa 0,0 l/m 2 min 0 min 0,0 UV-I 30 W/m 8,4 km/h (2 Bft)
06.07.2014 06:00 17,3 C 16,1 C 97 % 1007,6 hPa 0,0 l/m 0 min 0 min 0,0 UV-I 26 W/m 8,4 km/h (2 Bft)
06.07.2014 06:02 17,3 C 16,1 C 97 % 1007,6 hPa 0,0 l/m 0 min 0 min 0,0 UV-I 28 W/m 10,5 km/h (2 Bft)
06.07.2014 06:06 17,4 C 16,1 C 97 % 1007,6 hPa 0,0 l/m 0 min 0 min 0,0 UV-I 33 W/m 10,5 km/h (2 Bft)
06.07.2014 06:08 17,4 C 16,1 C 97 % 1007,6 hPa 0,0 l/m 0 min 0 min 0,0 UV-I 32 W/m 14,6 km/h (3 Bft)
06.07.2014 06:10 17,4 C 16,1 C 97 % 1007,6 hPa 0,0 l/m 0 min 0 min 0,0 UV-I 35 W/m 10,5 km/h (2 Bft)
06.07.2014 06:12 17,4 C 16,1 C 97 % 1007,6 hPa 0,0 l/m 0 min 0 min 0,0 UV-I 33 W/m 14,6 km/h (3 Bft)
06.07.2014 06:14 17,4 C 16,1 C 97 % 1007,6 hPa 0,0 l/m 0 min 0 min 0,0 UV-I 35 W/m 12,6 km/h (3 Bft)
06.07.2014 06:16 17,5 C 16,1 C 96 % 1007,6 hPa 0,0 l/m 0 min 0 min 0,0 UV-I 40 W/m 12,6 km/h (3 Bft)
06.07.2014 06:18 17,5 C 16,1 C 96 % 1007,6 hPa 0,0 l/m 0 min 0 min 0,0 UV-I 44 W/m 12,6 km/h (3 Bft)
06.07.2014 06:20 17,5 C 16,1 C 96 % 1007,7 hPa 0,0 l/m 0 min 0 min 0,0 UV-I 47 W/m 12,6 km/h (3 Bft)
06.07.2014 06:22 17,6 C 16,1 C 96 % 1007,6 hPa 0,0 l/m 2 min 0 min 0,0 UV-I 56 W/m 14,6 km/h (3 Bft)
06.07.2014 06:24 17,6 C 16,1 C 96 % 1007,6 hPa 0,0 l/m 2 min 0 min 0,0 UV-I 60 W/m 14,6 km/h (3 Bft)
06.07.2014 06:26 17,6 C 16,1 C 96 % 1007,6 hPa 0,0 l/m 2 min 0 min 0,0 UV-I 65 W/m 14,6 km/h (3 Bft)
06.07.2014 06:28 17,7 C 16,1 C 96 % 1007,6 hPa 0,0 l/m 2 min 0 min 0,0 UV-I 74 W/m 14,6 km/h (3 Bft)
06.07.2014 06:30 17,7 C 16,1 C 96 % 1007,6 hPa 0,0 l/m 2 min 0 min 0,0 UV-I 127 W/m 16,7 km/h (3 Bft)
06.07.2014 06:32 17,7 C 16,1 C 96 % 1007,7 hPa 0,0 l/m 2 min 0 min 0,0 UV-I 123 W/m 12,6 km/h (3 Bft)
06.07.2014 06:34 17,8 C 16,1 C 96 % 1007,7 hPa 0,0 l/m 2 min 0 min 0,0 UV-I 114 W/m 14,6 km/h (3 Bft)
06.07.2014 06:36 17,8 C 16,1 C 96 % 1007,6 hPa 0,0 l/m 2 min 0 min 0,0 UV-I 111 W/m 14,6 km/h (3 Bft)
06.07.2014 06:38 17,8 C 16,1 C 96 % 1007,6 hPa 0,0 l/m 2 min 0 min 0,0 UV-I 107 W/m 16,7 km/h (3 Bft)
06.07.2014 06:40 17,9 C 16,7 C 96 % 1007,6 hPa 0,0 l/m 2 min 0 min 0,0 UV-I 109 W/m 10,5 km/h (2 Bft)
06.07.2014 06:42 17,9 C 16,7 C 96 % 1007,6 hPa 0,0 l/m 2 min 0 min 0,0 UV-I 88 W/m 12,6 km/h (3 Bft)
06.07.2014 06:44 17,9 C 16,7 C 96 % 1007,6 hPa 0,0 l/m 2 min 0 min 0,0 UV-I 90 W/m 14,6 km/h (3 Bft)
06.07.2014 06:46 18,0 C 16,7 C 96 % 1007,6 hPa 0,0 l/m 2 min 0 min 0,0 UV-I 125 W/m 10,5 km/h (2 Bft)
06.07.2014 06:48 18,0 C 16,7 C 96 % 1007,6 hPa 0,0 l/m 2 min 0 min 0,0 UV-I 109 W/m 8,4 km/h (2 Bft)
06.07.2014 06:50 18,1 C 16,7 C 96 % 1007,6 hPa 0,0 l/m 2 min 0 min 0,0 UV-I 105 W/m 14,6 km/h (3 Bft)
06.07.2014 06:52 18,1 C 16,7 C 96 % 1007,6 hPa 0,0 l/m 0 min 0 min 0,0 UV-I 72 W/m 12,6 km/h (3 Bft)
06.07.2014 06:54 18,1 C 16,7 C 96 % 1007,5 hPa 0,0 l/m 0 min 0 min 0,0 UV-I 69 W/m 10,5 km/h (2 Bft)
06.07.2014 06:56 18,2 C 16,7 C 96 % 1007,6 hPa 0,0 l/m 0 min 0 min 0,0 UV-I 74 W/m 8,4 km/h (2 Bft)
06.07.2014 06:58 18,2 C 16,7 C 96 % 1007,6 hPa 0,0 l/m 0 min 0 min 0,0 UV-I 76 W/m 12,6 km/h (3 Bft)
06.07.2014 07:00 18,2 C 16,7 C 96 % 1007,5 hPa 0,0 l/m 0 min 0 min 0,0 UV-I 76 W/m 14,6 km/h (3 Bft)
06.07.2014 07:02 18,2 C 16,7 C 95 % 1007,6 hPa 0,0 l/m 0 min 0 min 0,0 UV-I 83 W/m 14,6 km/h (3 Bft)
06.07.2014 07:04 18,3 C 16,7 C 95 % 1007,6 hPa 0,0 l/m 0 min 0 min 0,0 UV-I 98 W/m 10,5 km/h (2 Bft)
06.07.2014 07:06 18,3 C 16,7 C 96 % 1007,6 hPa 0,0 l/m 0 min 0 min 0,0 UV-I 98 W/m 18,8 km/h (3 Bft)
06.07.2014 07:08 18,3 C 16,7 C 96 % 1007,6 hPa 0,0 l/m 0 min 0 min 0,0 UV-I 88 W/m 12,6 km/h (3 Bft)
06.07.2014 07:10 18,4 C 16,7 C 95 % 1007,6 hPa 0,0 l/m 0 min 0 min 0,0 UV-I 98 W/m 16,7 km/h (3 Bft)
06.07.2014 07:12 18,4 C 16,7 C 95 % 1007,6 hPa 0,0 l/m 0 min 0 min 0,0 UV-I 90 W/m 14,6 km/h (3 Bft)
06.07.2014 07:14 18,4 C 16,7 C 95 % 1007,7 hPa 0,0 l/m 0 min 0 min 0,0 UV-I 105 W/m 12,6 km/h (3 Bft)
06.07.2014 07:16 18,4 C 16,7 C 95 % 1007,6 hPa 0,0 l/m 0 min 0 min 0,0 UV-I 111 W/m 12,6 km/h (3 Bft)
06.07.2014 07:18 18,5 C 16,7 C 95 % 1007,6 hPa 0,0 l/m 2 min 0 min 0,0 UV-I 130 W/m 14,6 km/h (3 Bft)
06.07.2014 07:20 18,6 C 16,7 C 95 % 1007,6 hPa 0,0 l/m 2 min 0 min 0,0 UV-I 204 W/m 12,6 km/h (3 Bft)
06.07.2014 07:22 18,6 C 17,2 C 95 % 1007,6 hPa 0,0 l/m 2 min 0 min 0,0 UV-I 281 W/m 14,6 km/h (3 Bft)
06.07.2014 07:24 18,7 C 17,2 C 95 % 1007,6 hPa 0,0 l/m 2 min 0 min 0,0 UV-I 309 W/m 14,6 km/h (3 Bft)
06.07.2014 07:26 18,8 C 17,2 C 95 % 1007,6 hPa 0,0 l/m 2 min 0 min 0,0 UV-I 316 W/m 16,7 km/h (3 Bft)
06.07.2014 07:28 18,9 C 17,2 C 95 % 1007,6 hPa 0,0 l/m 2 min 0 min 0,0 UV-I 294 W/m 14,6 km/h (3 Bft)
06.07.2014 07:30 19,0 C 17,2 C 94 % 1007,6 hPa 0,0 l/m 2 min 0 min 0,0 UV-I 318 W/m 16,7 km/h (3 Bft)
06.07.2014 07:32 19,1 C 17,2 C 94 % 1007,6 hPa 0,0 l/m 2 min 0 min 0,0 UV-I 345 W/m 23,0 km/h (4 Bft)
06.07.2014 07:34 19,1 C 17,8 C 94 % 1007,6 hPa 0,0 l/m 2 min 0 min 0,0 UV-I 288 W/m 16,7 km/h (3 Bft)
06.07.2014 07:36 19,2 C 17,8 C 94 % 1007,6 hPa 0,0 l/m 2 min 0 min 0,0 UV-I 302 W/m 14,6 km/h (3 Bft)
06.07.2014 07:38 19,3 C 17,8 C 93 % 1007,6 hPa 0,0 l/m 2 min 0 min 0,0 UV-I 369 W/m 14,6 km/h (3 Bft)
06.07.2014 07:40 19,4 C 17,8 C 93 % 1007,7 hPa 0,0 l/m 2 min 0 min 0,0 UV-I 380 W/m 18,8 km/h (3 Bft)
06.07.2014 07:42 19,5 C 17,8 C 93 % 1007,7 hPa 0,0 l/m 2 min 0 min 0,0 UV-I 364 W/m 14,6 km/h (3 Bft)
06.07.2014 07:44 19,6 C 17,8 C 92 % 1007,7 hPa 0,0 l/m 2 min 0 min 0,0 UV-I 269 W/m 18,8 km/h (3 Bft)
06.07.2014 07:46 19,7 C 17,8 C 92 % 1007,7 hPa 0,0 l/m 2 min 0 min 0,0 UV-I 192 W/m 16,7 km/h (3 Bft)
06.07.2014 07:48 19,8 C 17,8 C 91 % 1007,7 hPa 0,0 l/m 2 min 0 min 0,0 UV-I 216 W/m 20,9 km/h (4 Bft)
06.07.2014 07:50 19,8 C 18,3 C 91 % 1007,8 hPa 0,0 l/m 2 min 0 min 0,0 UV-I 281 W/m 12,6 km/h (3 Bft)
06.07.2014 07:52 19,9 C 18,3 C 91 % 1007,8 hPa 0,0 l/m 2 min 0 min 0,0 UV-I 329 W/m 20,9 km/h (4 Bft)
06.07.2014 07:54 20,0 C 18,3 C 90 % 1007,8 hPa 0,0 l/m 2 min 0 min 0,0 UV-I 353 W/m 16,7 km/h (3 Bft)
06.07.2014 07:56 20,1 C 18,3 C 90 % 1007,8 hPa 0,0 l/m 2 min 0 min 0,0 UV-I 353 W/m 16,7 km/h (3 Bft)
06.07.2014 07:58 20,1 C 18,3 C 90 % 1007,8 hPa 0,0 l/m 2 min 0 min 0,0 UV-I 262 W/m 18,8 km/h (3 Bft)
06.07.2014 08:00 20,2 C 18,3 C 90 % 1007,8 hPa 0,0 l/m 2 min 0 min 0,0 UV-I 229 W/m 18,8 km/h (3 Bft)
06.07.2014 08:02 20,2 C 18,3 C 90 % 1007,8 hPa 0,0 l/m 2 min 0 min 0,0 UV-I 216 W/m 14,6 km/h (3 Bft)
06.07.2014 08:04 20,3 C 18,3 C 90 % 1007,8 hPa 0,0 l/m 2 min 0 min 0,0 UV-I 223 W/m 14,6 km/h (3 Bft)
06.07.2014 08:06 20,3 C 18,3 C 90 % 1007,8 hPa 0,0 l/m 2 min 0 min 0,0 UV-I 239 W/m 14,6 km/h (3 Bft)
06.07.2014 08:08 20,3 C 18,3 C 89 % 1007,8 hPa 0,0 l/m 2 min 0 min 0,0 UV-I 290 W/m 25,1 km/h (4 Bft)
06.07.2014 08:10 20,3 C 18,3 C 88 % 1007,9 hPa 0,0 l/m 2 min 0 min 0,0 UV-I 225 W/m 29,3 km/h (5 Bft)
06.07.2014 08:12 20,3 C 18,3 C 88 % 1007,8 hPa 0,0 l/m 2 min 0 min 0,0 UV-I 214 W/m 18,8 km/h (3 Bft)
06.07.2014 08:14 20,3 C 18,3 C 88 % 1007,8 hPa 0,0 l/m 2 min 0 min 0,0 UV-I 192 W/m 18,8 km/h (3 Bft)
06.07.2014 08:16 20,3 C 18,3 C 88 % 1007,8 hPa 0,0 l/m 0 min 0 min 0,0 UV-I 169 W/m 23,0 km/h (4 Bft)
06.07.2014 08:18 20,3 C 18,3 C 87 % 1007,8 hPa 0,0 l/m 0 min 0 min 0,0 UV-I 163 W/m 25,1 km/h (4 Bft)
06.07.2014 08:20 20,3 C 18,3 C 87 % 1007,8 hPa 0,0 l/m 0 min 0 min 0,0 UV-I 167 W/m 23,0 km/h (4 Bft)
06.07.2014 08:22 20,3 C 18,3 C 87 % 1007,8 hPa 0,0 l/m 0 min 0 min 0,0 UV-I 163 W/m 20,9 km/h (4 Bft)
06.07.2014 08:24 20,3 C 18,3 C 87 % 1007,8 hPa 0,0 l/m 0 min 0 min 0,0 UV-I 162 W/m 20,9 km/h (4 Bft)
06.07.2014 08:26 20,3 C 18,3 C 87 % 1007,7 hPa 0,0 l/m 0 min 0 min 0,0 UV-I 163 W/m 14,6 km/h (3 Bft)
06.07.2014 08:28 20,2 C 18,3 C 88 % 1007,7 hPa 0,0 l/m 0 min 0 min 0,0 UV-I 162 W/m 16,7 km/h (3 Bft)
06.07.2014 08:30 20,2 C 18,3 C 87 % 1007,7 hPa 0,0 l/m 0 min 0 min 0,0 UV-I 163 W/m 27,2 km/h (4 Bft)
06.07.2014 08:32 20,2 C 18,3 C 87 % 1007,7 hPa 0,0 l/m 0 min 0 min 0,0 UV-I 163 W/m 18,8 km/h (3 Bft)
06.07.2014 08:34 20,2 C 18,3 C 88 % 1007,8 hPa 0,0 l/m 0 min 0 min 0,0 UV-I 165 W/m 16,7 km/h (3 Bft)
06.07.2014 08:36 20,2 C 18,3 C 87 % 1007,7 hPa 0,0 l/m 0 min 0 min 0,0 UV-I 169 W/m 14,6 km/h (3 Bft)
06.07.2014 08:38 20,2 C 18,9 C 87 % 1007,8 hPa 0,0 l/m 0 min 0 min 0,0 UV-I 171 W/m 12,6 km/h (3 Bft)
06.07.2014 08:40 20,3 C 18,9 C 88 % 1007,9 hPa 0,0 l/m 0 min 0 min 0,0 UV-I 171 W/m 16,7 km/h (3 Bft)
06.07.2014 08:42 20,3 C 18,9 C 87 % 1007,8 hPa 0,0 l/m 0 min 0 min 0,0 UV-I 178 W/m 14,6 km/h (3 Bft)
06.07.2014 08:44 20,3 C 18,9 C 87 % 1007,9 hPa 0,0 l/m 0 min 0 min 0,0 UV-I 181 W/m 20,9 km/h (4 Bft)
06.07.2014 08:46 20,3 C 18,9 C 86 % 1007,9 hPa 0,0 l/m 0 min 0 min 0,0 UV-I 193 W/m 23,0 km/h (4 Bft)
06.07.2014 08:48 20,3 C 18,9 C 86 % 1007,8 hPa 0,0 l/m 0 min 0 min 0,0 UV-I 214 W/m 20,9 km/h (4 Bft)
06.07.2014 08:50 20,4 C 18,9 C 86 % 1007,9 hPa 0,0 l/m 2 min 0 min 0,5 UV-I 241 W/m 18,8 km/h (3 Bft)
06.07.2014 08:52 20,4 C 18,9 C 86 % 1007,9 hPa 0,0 l/m 2 min 0 min 0,6 UV-I 253 W/m 18,8 km/h (3 Bft)
06.07.2014 08:54 20,6 C 18,9 C 86 % 1007,9 hPa 0,0 l/m 2 min 0 min 0,6 UV-I 237 W/m 16,7 km/h (3 Bft)
06.07.2014 08:56 20,6 C 18,9 C 86 % 1007,9 hPa 0,0 l/m 0 min 0 min 0,5 UV-I 213 W/m 25,1 km/h (4 Bft)
06.07.2014 08:58 20,6 C 18,9 C 85 % 1007,9 hPa 0,0 l/m 0 min 0 min 0,5 UV-I 216 W/m 18,8 km/h (3 Bft)
06.07.2014 09:00 20,6 C 18,9 C 85 % 1008,0 hPa 0,0 l/m 0 min 0 min 0,5 UV-I 200 W/m 23,0 km/h (4 Bft)
06.07.2014 09:02 20,6 C 18,9 C 85 % 1007,9 hPa 0,0 l/m 0 min 0 min 0,5 UV-I 185 W/m 14,6 km/h (3 Bft)
06.07.2014 09:04 20,6 C 18,3 C 86 % 1007,9 hPa 0,0 l/m 0 min 0 min 0,6 UV-I 181 W/m 18,8 km/h (3 Bft)
06.07.2014 09:06 20,6 C 18,3 C 85 % 1007,9 hPa 0,0 l/m 0 min 0 min 0,6 UV-I 223 W/m 16,7 km/h (3 Bft)
06.07.2014 09:08 20,6 C 18,3 C 85 % 1008,0 hPa 0,0 l/m 0 min 0 min 0,5 UV-I 188 W/m 14,6 km/h (3 Bft)
06.07.2014 09:10 20,6 C 18,3 C 85 % 1007,9 hPa 0,0 l/m 0 min 0 min 0,0 UV-I 90 W/m 18,8 km/h (3 Bft)
06.07.2014 09:12 20,6 C 18,3 C 85 % 1007,9 hPa 0,0 l/m 0 min 0 min 0,7 UV-I 153 W/m 16,7 km/h (3 Bft)
06.07.2014 09:14 20,5 C 18,3 C 85 % 1007,9 hPa 0,0 l/m 0 min 0 min 1,4 UV-I 251 W/m 16,7 km/h (3 Bft)
06.07.2014 09:16 20,6 C 18,3 C 85 % 1007,9 hPa 0,0 l/m 0 min 0 min 1,5 UV-I 188 W/m 12,6 km/h (3 Bft)
06.07.2014 09:18 20,7 C 18,3 C 86 % 1007,9 hPa 0,0 l/m 2 min 0 min 1,6 UV-I 515 W/m 10,5 km/h (2 Bft)
06.07.2014 09:20 20,9 C 18,3 C 86 % 1007,9 hPa 0,0 l/m 2 min 0 min 1,7 UV-I 541 W/m 14,6 km/h (3 Bft)
06.07.2014 09:22 21,2 C 18,9 C 85 % 1007,8 hPa 0,0 l/m 2 min 0 min 1,7 UV-I 550 W/m 16,7 km/h (3 Bft)
06.07.2014 09:24 21,4 C 18,9 C 84 % 1007,9 hPa 0,0 l/m 2 min 0 min 1,8 UV-I 547 W/m 14,6 km/h (3 Bft)
06.07.2014 09:26 21,5 C 18,9 C 84 % 1007,7 hPa 0,0 l/m 2 min 0 min 1,9 UV-I 547 W/m 27,2 km/h (4 Bft)
06.07.2014 09:28 21,7 C 19,4 C 83 % 1007,8 hPa 0,0 l/m 2 min 0 min 1,9 UV-I 547 W/m 25,1 km/h (4 Bft)
06.07.2014 09:30 21,9 C 19,4 C 83 % 1007,7 hPa 0,0 l/m 2 min 0 min 1,9 UV-I 552 W/m 23,0 km/h (4 Bft)
06.07.2014 09:32 22,1 C 19,4 C 83 % 1007,7 hPa 0,0 l/m 2 min 0 min 2,0 UV-I 557 W/m 18,8 km/h (3 Bft)
06.07.2014 09:34 22,2 C 19,4 C 82 % 1007,7 hPa 0,0 l/m 2 min 0 min 2,0 UV-I 550 W/m 23,0 km/h (4 Bft)
06.07.2014 09:36 22,4 C 20,0 C 83 % 1007,7 hPa 0,0 l/m 2 min 0 min 2,2 UV-I 592 W/m 14,6 km/h (3 Bft)
06.07.2014 09:38 22,6 C 20,0 C 81 % 1007,8 hPa 0,0 l/m 2 min 0 min 1,9 UV-I 592 W/m 18,8 km/h (3 Bft)
06.07.2014 09:40 22,6 C 20,0 C 80 % 1007,9 hPa 0,0 l/m 2 min 0 min 2,3 UV-I 626 W/m 31,4 km/h (5 Bft)
06.07.2014 09:42 22,6 C 20,0 C 79 % 1007,9 hPa 0,0 l/m 2 min 0 min 2,3 UV-I 598 W/m 35,6 km/h (5 Bft)
06.07.2014 09:44 22,7 C 20,6 C 80 % 1007,7 hPa 0,0 l/m 2 min 0 min 1,4 UV-I 591 W/m 18,8 km/h (3 Bft)
06.07.2014 09:46 22,8 C 20,6 C 80 % 1007,7 hPa 0,0 l/m 2 min 0 min 2,4 UV-I 621 W/m 18,8 km/h (3 Bft)
06.07.2014 09:48 22,9 C 20,6 C 79 % 1007,8 hPa 0,2 l/m 2 min 0 min 2,6 UV-I 715 W/m 29,3 km/h (5 Bft)
06.07.2014 09:50 23,0 C 21,1 C 77 % 1007,8 hPa 0,0 l/m 2 min 0 min 2,6 UV-I 775 W/m 18,8 km/h (3 Bft)
06.07.2014 09:52 23,0 C 20,6 C 77 % 1007,8 hPa 0,0 l/m 0 min 0 min 1,2 UV-I 167 W/m 31,4 km/h (5 Bft)
06.07.2014 09:54 22,9 C 20,6 C 77 % 1007,7 hPa 0,0 l/m 2 min 0 min 2,7 UV-I 715 W/m 23,0 km/h (4 Bft)
06.07.2014 09:56 22,9 C 21,1 C 78 % 1007,8 hPa 0,0 l/m 2 min 0 min 1,7 UV-I 631 W/m 14,6 km/h (3 Bft)
06.07.2014 09:58 23,0 C 21,1 C 79 % 1007,8 hPa 0,0 l/m 2 min 0 min 2,0 UV-I 631 W/m 31,4 km/h (5 Bft)
06.07.2014 10:00 23,0 C 21,1 C 76 % 1007,7 hPa 0,0 l/m 2 min 0 min 2,9 UV-I 719 W/m 33,5 km/h (5 Bft)
06.07.2014 10:02 23,1 C 21,7 C 76 % 1007,7 hPa 0,0 l/m 2 min 0 min 1,3 UV-I 744 W/m 20,9 km/h (4 Bft)
06.07.2014 10:04 23,1 C 21,7 C 76 % 1007,8 hPa 0,0 l/m 0 min 0 min 1,2 UV-I 195 W/m 14,6 km/h (3 Bft)
06.07.2014 10:06 22,9 C 21,1 C 77 % 1007,7 hPa 0,0 l/m 0 min 0 min 3,1 UV-I 264 W/m 31,4 km/h (5 Bft)
06.07.2014 10:08 22,7 C 21,7 C 76 % 1007,7 hPa 0,0 l/m 2 min 0 min 3,2 UV-I 355 W/m 23,0 km/h (4 Bft)
06.07.2014 10:10 22,7 C 22,2 C 77 % 1007,7 hPa 0,0 l/m 2 min 0 min 2,9 UV-I 355 W/m 29,3 km/h (5 Bft)
06.07.2014 10:12 22,8 C 21,7 C 76 % 1007,8 hPa 0,0 l/m 2 min 0 min 1,6 UV-I 422 W/m 31,4 km/h (5 Bft)
06.07.2014 10:14 22,7 C 21,7 C 76 % 1007,7 hPa 0,0 l/m 2 min 0 min 3,3 UV-I 422 W/m 27,2 km/h (4 Bft)
06.07.2014 10:16 22,7 C 21,7 C 77 % 1007,8 hPa 0,0 l/m 2 min 0 min 2,2 UV-I 422 W/m 25,1 km/h (4 Bft)
06.07.2014 10:18 22,9 C 22,2 C 78 % 1007,7 hPa 0,0 l/m 2 min 0 min 2,5 UV-I 422 W/m 27,2 km/h (4 Bft)
06.07.2014 10:20 23,0 C 22,2 C 76 % 1007,8 hPa 0,0 l/m 2 min 0 min 3,1 UV-I 422 W/m 27,2 km/h (4 Bft)
06.07.2014 10:22 23,0 C 22,8 C 75 % 1007,7 hPa 0,0 l/m 2 min 0 min 3,4 UV-I 714 W/m 20,9 km/h (4 Bft)
06.07.2014 10:24 23,1 C 23,3 C 76 % 1007,6 hPa 0,0 l/m 2 min 0 min 3,5 UV-I 714 W/m 29,3 km/h (5 Bft)
06.07.2014 10:26 23,1 C 24,4 C 75 % 1007,7 hPa 0,0 l/m 2 min 0 min 3,5 UV-I 729 W/m 23,0 km/h (4 Bft)
06.07.2014 10:28 23,3 C 25,6 C 75 % 1007,6 hPa 0,0 l/m 2 min 0 min 3,5 UV-I 700 W/m 16,7 km/h (3 Bft)
06.07.2014 10:30 23,5 C 25,6 C 76 % 1007,6 hPa 0,0 l/m 2 min 0 min 3,6 UV-I 708 W/m 25,1 km/h (4 Bft)
06.07.2014 10:32 23,7 C 25,0 C 75 % 1007,6 hPa 0,0 l/m 2 min 0 min 3,6 UV-I 710 W/m 20,9 km/h (4 Bft)
06.07.2014 10:34 24,0 C 24,4 C 75 % 1007,6 hPa 0,0 l/m 2 min 0 min 3,7 UV-I 717 W/m 23,0 km/h (4 Bft)
06.07.2014 10:36 24,1 C 24,4 C 74 % 1007,6 hPa 0,0 l/m 2 min 0 min 3,8 UV-I 737 W/m 35,6 km/h (5 Bft)
06.07.2014 10:38 24,1 C 25,0 C 73 % 1007,5 hPa 0,0 l/m 2 min 0 min 3,8 UV-I 710 W/m 33,5 km/h (5 Bft)
06.07.2014 10:40 23,9 C 24,4 C 72 % 1007,6 hPa 0,0 l/m 2 min 0 min 3,9 UV-I 722 W/m 27,2 km/h (4 Bft)
06.07.2014 10:42 24,0 C 25,6 C 74 % 1007,5 hPa 0,0 l/m 2 min 0 min 4,0 UV-I 756 W/m 23,0 km/h (4 Bft)
06.07.2014 10:44 24,1 C 26,1 C 73 % 1007,6 hPa 0,0 l/m 2 min 0 min 4,0 UV-I 759 W/m 27,2 km/h (4 Bft)
06.07.2014 10:46 24,2 C 25,6 C 73 % 1007,6 hPa 0,0 l/m 2 min 0 min 3,5 UV-I 612 W/m 31,4 km/h (5 Bft)
06.07.2014 10:48 24,1 C 25,6 C 73 % 1007,6 hPa 0,0 l/m 2 min 0 min 3,3 UV-I 582 W/m 18,8 km/h (3 Bft)
06.07.2014 10:50 24,2 C 25,0 C 72 % 1007,5 hPa 0,0 l/m 2 min 0 min 2,6 UV-I 471 W/m 33,5 km/h (5 Bft)
06.07.2014 10:52 24,1 C 24,4 C 73 % 1007,6 hPa 0,0 l/m 0 min 0 min 2,9 UV-I 246 W/m 20,9 km/h (4 Bft)
06.07.2014 10:54 24,0 C 24,4 C 74 % 1007,6 hPa 0,0 l/m 2 min 0 min 2,8 UV-I 432 W/m 20,9 km/h (4 Bft)
06.07.2014 10:56 24,0 C 24,4 C 74 % 1007,6 hPa 0,0 l/m 2 min 0 min 3,4 UV-I 476 W/m 27,2 km/h (4 Bft)
06.07.2014 10:58 24,0 C 24,4 C 73 % 1007,5 hPa 0,0 l/m 2 min 0 min 3,0 UV-I 536 W/m 25,1 km/h (4 Bft)
06.07.2014 11:00 24,0 C 24,4 C 73 % 1007,4 hPa 0,0 l/m 2 min 0 min 2,8 UV-I 464 W/m 23,0 km/h (4 Bft)
06.07.2014 11:02 23,9 C 25,6 C 73 % 1007,4 hPa 0,0 l/m 2 min 0 min 4,6 UV-I 914 W/m 31,4 km/h (5 Bft)
06.07.2014 11:04 24,1 C 26,7 C 74 % 1007,3 hPa 0,0 l/m 2 min 0 min 3,6 UV-I 817 W/m 31,4 km/h (5 Bft)
06.07.2014 11:06 24,3 C 26,7 C 72 % 1007,4 hPa 0,0 l/m 2 min 0 min 3,6 UV-I 842 W/m 50,2 km/h (7 Bft)
06.07.2014 11:08 24,3 C 26,1 C 71 % 1007,4 hPa 0,0 l/m 2 min 0 min 3,0 UV-I 842 W/m 31,4 km/h (5 Bft)
06.07.2014 11:10 24,4 C 26,7 C 72 % 1007,5 hPa 0,0 l/m 2 min 0 min 4,0 UV-I 842 W/m 31,4 km/h (5 Bft)
06.07.2014 11:12 24,4 C 25,6 C 71 % 1007,4 hPa 0,0 l/m 2 min 0 min 2,0 UV-I 842 W/m 35,6 km/h (5 Bft)
06.07.2014 11:14 24,3 C 25,0 C 71 % 1007,4 hPa 0,0 l/m 0 min 0 min 2,1 UV-I 276 W/m 16,7 km/h (3 Bft)
06.07.2014 11:16 24,3 C 25,0 C 72 % 1007,4 hPa 0,0 l/m 0 min 0 min 3,2 UV-I 276 W/m 25,1 km/h (4 Bft)
06.07.2014 11:18 24,3 C 25,6 C 72 % 1007,2 hPa 0,0 l/m 2 min 0 min 4,3 UV-I 940 W/m 20,9 km/h (4 Bft)
06.07.2014 11:20 24,4 C 25,6 C 72 % 1007,4 hPa 0,0 l/m 0 min 0 min 2,3 UV-I 325 W/m 33,5 km/h (5 Bft)
06.07.2014 11:22 24,5 C 25,6 C 72 % 1007,2 hPa 0,0 l/m 2 min 0 min 2,9 UV-I 679 W/m 29,3 km/h (5 Bft)
06.07.2014 11:24 24,6 C 26,1 C 72 % 1007,2 hPa 0,0 l/m 2 min 0 min 5,0 UV-I 679 W/m 23,0 km/h (4 Bft)
06.07.2014 11:26 24,9 C 26,7 C 73 % 1007,1 hPa 0,0 l/m 2 min 0 min 3,9 UV-I 930 W/m 25,1 km/h (4 Bft)
06.07.2014 11:28 25,1 C 26,7 C 71 % 1007,1 hPa 0,0 l/m 0 min 0 min 2,9 UV-I 274 W/m 29,3 km/h (5 Bft)
06.07.2014 11:30 24,9 C 25,6 C 70 % 1007,2 hPa 0,0 l/m 0 min 0 min 2,7 UV-I 274 W/m 43,9 km/h (6 Bft)
06.07.2014 11:32 24,9 C 25,0 C 71 % 1007,2 hPa 0,0 l/m 0 min 0 min 3,0 UV-I 346 W/m 25,1 km/h (4 Bft)
06.07.2014 11:34 24,8 C 24,4 C 70 % 1007,1 hPa 0,0 l/m 0 min 0 min 2,5 UV-I 309 W/m 16,7 km/h (3 Bft)
06.07.2014 11:36 24,8 C 24,4 C 72 % 1007,0 hPa 0,0 l/m 2 min 0 min 2,7 UV-I 387 W/m 29,3 km/h (5 Bft)
06.07.2014 11:38 24,7 C 23,9 C 71 % 1007,1 hPa 0,0 l/m 0 min 0 min 2,5 UV-I 380 W/m 27,2 km/h (4 Bft)
06.07.2014 11:40 24,7 C 23,9 C 71 % 1007,1 hPa 0,0 l/m 0 min 0 min 3,5 UV-I 380 W/m 25,1 km/h (4 Bft)
06.07.2014 11:42 24,8 C 24,4 C 70 % 1007,1 hPa 0,0 l/m 0 min 0 min 2,3 UV-I 334 W/m 35,6 km/h (5 Bft)
06.07.2014 11:44 24,8 C 25,0 C 70 % 1007,2 hPa 0,0 l/m 0 min 0 min 3,1 UV-I 357 W/m 23,0 km/h (4 Bft)
06.07.2014 11:46 24,9 C 25,0 C 70 % 1007,2 hPa 0,0 l/m 0 min 0 min 1,9 UV-I 274 W/m 20,9 km/h (4 Bft)
06.07.2014 11:48 24,8 C 24,4 C 70 % 1007,1 hPa 0,0 l/m 0 min 0 min 1,5 UV-I 237 W/m 20,9 km/h (4 Bft)
06.07.2014 11:50 24,7 C 23,9 C 70 % 1007,2 hPa 0,0 l/m 0 min 0 min 1,1 UV-I 188 W/m 18,8 km/h (3 Bft)
06.07.2014 11:52 24,6 C 23,3 C 71 % 1007,1 hPa 0,0 l/m 0 min 0 min 1,3 UV-I 211 W/m 14,6 km/h (3 Bft)
06.07.2014 11:54 24,4 C 23,3 C 71 % 1007,1 hPa 0,0 l/m 0 min 0 min 1,6 UV-I 244 W/m 14,6 km/h (3 Bft)
06.07.2014 11:56 24,3 C 23,3 C 72 % 1007,2 hPa 0,0 l/m 0 min 0 min 1,4 UV-I 218 W/m 20,9 km/h (4 Bft)
06.07.2014 11:58 24,3 C 23,3 C 71 % 1007,1 hPa 0,0 l/m 0 min 0 min 1,7 UV-I 239 W/m 18,8 km/h (3 Bft)
06.07.2014 12:00 24,3 C 22,8 C 73 % 1007,2 hPa 0,0 l/m 0 min 0 min 1,3 UV-I 204 W/m 14,6 km/h (3 Bft)
06.07.2014 12:02 24,2 C 22,8 C 72 % 1007,2 hPa 0,0 l/m 0 min 0 min 1,4 UV-I 250 W/m 27,2 km/h (4 Bft)
06.07.2014 12:05 24,2 C 22,8 C 70 % 1007,2 hPa 0,0 l/m 0 min 0 min 1,7 UV-I 229 W/m 27,2 km/h (4 Bft)
06.07.2014 12:06 24,2 C 22,8 C 69 % 1007,2 hPa 0,0 l/m 0 min 0 min 1,5 UV-I 229 W/m 33,5 km/h (5 Bft)
06.07.2014 12:08 24,2 C 22,8 C 70 % 1007,2 hPa 0,0 l/m 0 min 0 min 1,3 UV-I 207 W/m 31,4 km/h (5 Bft)
06.07.2014 12:10 24,1 C 22,8 C 70 % 1007,2 hPa 0,0 l/m 0 min 0 min 1,8 UV-I 260 W/m 29,3 km/h (5 Bft)
06.07.2014 12:12 24,2 C 22,8 C 71 % 1007,2 hPa 0,0 l/m 0 min 0 min 2,5 UV-I 334 W/m 16,7 km/h (3 Bft)
06.07.2014 12:14 24,3 C 23,3 C 72 % 1007,2 hPa 0,0 l/m 0 min 0 min 2,8 UV-I 355 W/m 23,0 km/h (4 Bft)
06.07.2014 12:16 24,5 C 23,9 C 72 % 1007,1 hPa 0,0 l/m 2 min 0 min 5,5 UV-I 434 W/m 20,9 km/h (4 Bft)
06.07.2014 12:18 24,9 C 25,6 C 71 % 1007,1 hPa 0,0 l/m 2 min 0 min 7,2 UV-I 434 W/m 20,9 km/h (4 Bft)
06.07.2014 12:20 25,2 C 26,1 C 69 % 1007,1 hPa 0,0 l/m 2 min 0 min 4,7 UV-I 527 W/m 33,5 km/h (5 Bft)
06.07.2014 12:22 25,5 C 27,2 C 69 % 1007,0 hPa 0,0 l/m 2 min 0 min 6,8 UV-I 527 W/m 29,3 km/h (5 Bft)
06.07.2014 12:24 25,8 C 28,3 C 68 % 1007,1 hPa 0,0 l/m 2 min 0 min 6,5 UV-I 902 W/m 20,9 km/h (4 Bft)
06.07.2014 12:26 26,1 C 28,9 C 68 % 1007,1 hPa 0,0 l/m 2 min 0 min 6,5 UV-I 902 W/m 35,6 km/h (5 Bft)
06.07.2014 12:28 26,3 C 28,9 C 66 % 1007,0 hPa 0,0 l/m 0 min 0 min 5,6 UV-I 243 W/m 23,0 km/h (4 Bft)
06.07.2014 12:30 26,5 C 30,0 C 65 % 1007,2 hPa 0,0 l/m 2 min 0 min 6,6 UV-I 928 W/m 39,7 km/h (6 Bft)
06.07.2014 12:32 26,6 C 29,4 C 63 % 1007,1 hPa 0,0 l/m 2 min 0 min 6,5 UV-I 867 W/m 37,7 km/h (5 Bft)
06.07.2014 12:34 26,7 C 28,9 C 64 % 1007,1 hPa 0,0 l/m 2 min 0 min 6,7 UV-I 867 W/m 35,6 km/h (5 Bft)
06.07.2014 12:36 26,4 C 27,2 C 63 % 1007,1 hPa 0,0 l/m 0 min 0 min 3,6 UV-I 366 W/m 33,5 km/h (5 Bft)
06.07.2014 12:38 26,3 C 27,2 C 65 % 1007,1 hPa 0,0 l/m 0 min 0 min 3,7 UV-I 366 W/m 33,5 km/h (5 Bft)
06.07.2014 12:40 26,2 C 26,7 C 65 % 1007,0 hPa 0,0 l/m 2 min 0 min 3,7 UV-I 480 W/m 37,7 km/h (5 Bft)
06.07.2014 12:42 26,2 C 26,7 C 66 % 1007,1 hPa 0,0 l/m 2 min 0 min 3,3 UV-I 450 W/m 18,8 km/h (3 Bft)
06.07.2014 12:44 26,2 C 26,1 C 65 % 1007,1 hPa 0,0 l/m 0 min 0 min 2,2 UV-I 290 W/m 31,4 km/h (5 Bft)
06.07.2014 12:46 26,1 C 25,6 C 64 % 1007,1 hPa 0,0 l/m 0 min 0 min 2,0 UV-I 265 W/m 35,6 km/h (5 Bft)
06.07.2014 12:48 25,8 C 25,0 C 65 % 1007,1 hPa 0,0 l/m 0 min 0 min 2,3 UV-I 316 W/m 35,6 km/h (5 Bft)
06.07.2014 12:50 25,6 C 24,4 C 65 % 1007,1 hPa 0,0 l/m 0 min 0 min 2,3 UV-I 274 W/m 39,7 km/h (6 Bft)
06.07.2014 12:52 25,4 C 23,9 C 65 % 1007,0 hPa 0,0 l/m 0 min 0 min 1,9 UV-I 250 W/m 35,6 km/h (5 Bft)
06.07.2014 12:54 25,2 C 23,9 C 66 % 1007,1 hPa 0,0 l/m 0 min 0 min 2,1 UV-I 295 W/m 29,3 km/h (5 Bft)
06.07.2014 12:56 25,2 C 23,9 C 67 % 1007,0 hPa 0,0 l/m 0 min 0 min 2,3 UV-I 301 W/m 35,6 km/h (5 Bft)
06.07.2014 12:58 25,1 C 23,9 C 67 % 1007,0 hPa 0,0 l/m 0 min 0 min 1,9 UV-I 265 W/m 25,1 km/h (4 Bft)
06.07.2014 13:00 25,1 C 23,9 C 67 % 1007,0 hPa 0,0 l/m 0 min 0 min 1,5 UV-I 193 W/m 25,1 km/h (4 Bft)
06.07.2014 13:02 25,0 C 23,3 C 67 % 1007,0 hPa 0,0 l/m 0 min 0 min 1,3 UV-I 186 W/m 20,9 km/h (4 Bft)
06.07.2014 13:04 24,9 C 23,3 C 67 % 1007,0 hPa 0,0 l/m 0 min 0 min 1,2 UV-I 188 W/m 27,2 km/h (4 Bft)
06.07.2014 13:06 24,9 C 23,3 C 68 % 1007,0 hPa 0,0 l/m 0 min 0 min 1,1 UV-I 178 W/m 20,9 km/h (4 Bft)
06.07.2014 13:08 24,9 C 23,3 C 68 % 1006,9 hPa 0,0 l/m 0 min 0 min 1,0 UV-I 174 W/m 25,1 km/h (4 Bft)
06.07.2014 13:10 24,9 C 23,3 C 69 % 1007,0 hPa 0,0 l/m 0 min 0 min 1,7 UV-I 236 W/m 12,6 km/h (3 Bft)
06.07.2014 13:12 24,9 C 23,9 C 71 % 1007,0 hPa 0,0 l/m 0 min 0 min 2,5 UV-I 355 W/m 20,9 km/h (4 Bft)
06.07.2014 13:14 25,1 C 23,9 C 69 % 1006,9 hPa 0,0 l/m 0 min 0 min 2,8 UV-I 345 W/m 23,0 km/h (4 Bft)
06.07.2014 13:16 25,3 C 24,4 C 69 % 1006,9 hPa 0,0 l/m 0 min 0 min 3,0 UV-I 399 W/m 20,9 km/h (4 Bft)
06.07.2014 13:18 25,5 C 25,0 C 68 % 1007,0 hPa 0,0 l/m 0 min 0 min 3,3 UV-I 397 W/m 20,9 km/h (4 Bft)
06.07.2014 13:20 25,6 C 25,0 C 68 % 1006,8 hPa 0,0 l/m 2 min 0 min 3,5 UV-I 424 W/m 18,8 km/h (3 Bft)
06.07.2014 13:22 25,8 C 25,6 C 69 % 1006,8 hPa 0,0 l/m 2 min 0 min 3,6 UV-I 424 W/m 10,5 km/h (2 Bft)
06.07.2014 13:24 25,9 C 25,6 C 69 % 1006,8 hPa 0,0 l/m 0 min 0 min 2,6 UV-I 309 W/m 10,5 km/h (2 Bft)
06.07.2014 13:26 25,9 C 25,6 C 67 % 1006,8 hPa 0,0 l/m 0 min 0 min 2,2 UV-I 272 W/m 23,0 km/h (4 Bft)
06.07.2014 13:28 25,9 C 25,0 C 67 % 1006,9 hPa 0,0 l/m 0 min 0 min 2,0 UV-I 269 W/m 35,6 km/h (5 Bft)
06.07.2014 13:30 25,7 C 24,4 C 66 % 1006,7 hPa 0,0 l/m 0 min 0 min 1,3 UV-I 204 W/m 27,2 km/h (4 Bft)
06.07.2014 13:32 25,6 C 24,4 C 66 % 1006,8 hPa 0,0 l/m 0 min 0 min 1,4 UV-I 209 W/m 33,5 km/h (5 Bft)
06.07.2014 13:34 25,6 C 24,4 C 66 % 1006,8 hPa 0,0 l/m 0 min 0 min 2,6 UV-I 309 W/m 29,3 km/h (5 Bft)
06.07.2014 13:36 25,7 C 25,0 C 66 % 1006,7 hPa 0,0 l/m 2 min 0 min 4,6 UV-I 802 W/m 31,4 km/h (5 Bft)
06.07.2014 13:38 25,9 C 25,0 C 66 % 1006,7 hPa 0,0 l/m 0 min 0 min 2,9 UV-I 327 W/m 20,9 km/h (4 Bft)
06.07.2014 13:40 25,9 C 25,0 C 66 % 1006,7 hPa 0,0 l/m 0 min 0 min 3,2 UV-I 411 W/m 20,9 km/h (4 Bft)
06.07.2014 13:42 25,9 C 25,0 C 65 % 1006,7 hPa 0,0 l/m 0 min 0 min 2,5 UV-I 292 W/m 23,0 km/h (4 Bft)
06.07.2014 13:44 25,9 C 25,0 C 66 % 1006,7 hPa 0,0 l/m 0 min 0 min 1,9 UV-I 211 W/m 29,3 km/h (5 Bft)
06.07.2014 13:46 25,8 C 24,4 C 66 % 1006,7 hPa 0,0 l/m 0 min 0 min 1,5 UV-I 171 W/m 25,1 km/h (4 Bft)
06.07.2014 13:48 25,6 C 23,9 C 66 % 1006,7 hPa 0,0 l/m 0 min 0 min 1,1 UV-I 149 W/m 23,0 km/h (4 Bft)
06.07.2014 13:50 25,4 C 23,9 C 66 % 1006,7 hPa 0,0 l/m 0 min 0 min 0,8 UV-I 125 W/m 16,7 km/h (3 Bft)
06.07.2014 13:52 25,3 C 23,3 C 67 % 1006,7 hPa 0,0 l/m 0 min 2 min 0,8 UV-I 118 W/m 14,6 km/h (3 Bft)
06.07.2014 13:54 25,2 C 21,7 C 69 % 1006,8 hPa 0,0 l/m 0 min 2 min 0,7 UV-I 118 W/m 23,0 km/h (4 Bft)
06.07.2014 13:56 24,7 C 20,0 C 74 % 1006,8 hPa 0,4 l/m 0 min 2 min 0,7 UV-I 118 W/m 37,7 km/h (5 Bft)
06.07.2014 13:58 24,1 C 19,4 C 76 % 1006,8 hPa 0,0 l/m 0 min 2 min 0,8 UV-I 160 W/m 18,8 km/h (3 Bft)
06.07.2014 14:00 23,5 C 19,4 C 79 % 1006,9 hPa 0,0 l/m 0 min 0 min 4,9 UV-I 209 W/m 27,2 km/h (4 Bft)
06.07.2014 14:02 23,2 C 20,6 C 83 % 1006,8 hPa 0,0 l/m 2 min 2 min 3,6 UV-I 455 W/m 25,1 km/h (4 Bft)
06.07.2014 14:04 23,3 C 21,1 C 85 % 1006,7 hPa 0,0 l/m 2 min 0 min 6,1 UV-I 455 W/m 18,8 km/h (3 Bft)
06.07.2014 14:06 23,4 C 21,1 C 85 % 1006,7 hPa 0,0 l/m 2 min 0 min 3,2 UV-I 455 W/m 14,6 km/h (3 Bft)
06.07.2014 14:08 23,3 C 21,1 C 84 % 1006,6 hPa 0,0 l/m 0 min 0 min 2,4 UV-I 220 W/m 16,7 km/h (3 Bft)
06.07.2014 14:10 23,3 C 21,1 C 84 % 1006,6 hPa 0,0 l/m 0 min 0 min 2,1 UV-I 190 W/m 14,6 km/h (3 Bft)
06.07.2014 14:12 23,3 C 20,6 C 83 % 1006,6 hPa 0,0 l/m 0 min 0 min 1,4 UV-I 165 W/m 12,6 km/h (3 Bft)
06.07.2014 14:14 23,3 C 20,6 C 84 % 1006,6 hPa 0,0 l/m 0 min 0 min 1,1 UV-I 181 W/m 14,6 km/h (3 Bft)
06.07.2014 14:16 23,4 C 20,6 C 84 % 1006,6 hPa 0,0 l/m 0 min 2 min 1,4 UV-I 227 W/m 14,6 km/h (3 Bft)
06.07.2014 14:18 23,5 C 21,7 C 85 % 1006,6 hPa 0,0 l/m 0 min 2 min 3,2 UV-I 381 W/m 6,3 km/h (2 Bft)
06.07.2014 14:20 23,7 C 21,7 C 85 % 1006,6 hPa 0,0 l/m 0 min 2 min 2,4 UV-I 287 W/m 6,3 km/h (2 Bft)
06.07.2014 14:22 23,8 C 21,1 C 82 % 1006,6 hPa 0,0 l/m 0 min 0 min 2,1 UV-I 243 W/m 18,8 km/h (3 Bft)
06.07.2014 14:24 23,9 C 20,6 C 80 % 1006,6 hPa 0,0 l/m 0 min 0 min 2,0 UV-I 274 W/m 16,7 km/h (3 Bft)
06.07.2014 14:26 24,0 C 21,1 C 80 % 1006,6 hPa 0,0 l/m 0 min 0 min 4,2 UV-I 348 W/m 10,5 km/h (2 Bft)
06.07.2014 14:28 24,3 C 21,7 C 80 % 1006,6 hPa 0,0 l/m 2 min 2 min 3,6 UV-I 439 W/m 14,6 km/h (3 Bft)
06.07.2014 14:30 24,6 C 21,7 C 80 % 1006,6 hPa 0,0 l/m 2 min 2 min 3,3 UV-I 425 W/m 18,8 km/h (3 Bft)
06.07.2014 14:32 24,8 C 21,7 C 80 % 1006,6 hPa 0,0 l/m 0 min 0 min 3,1 UV-I 367 W/m 14,6 km/h (3 Bft)
06.07.2014 14:34 24,9 C 21,7 C 78 % 1006,6 hPa 0,0 l/m 2 min 0 min 3,3 UV-I 417 W/m 12,6 km/h (3 Bft)
06.07.2014 14:36 25,1 C 22,2 C 79 % 1006,6 hPa 0,0 l/m 2 min 0 min 3,7 UV-I 478 W/m 23,0 km/h (4 Bft)
06.07.2014 14:38 25,2 C 22,2 C 76 % 1006,5 hPa 0,0 l/m 2 min 0 min 3,6 UV-I 471 W/m 14,6 km/h (3 Bft)
06.07.2014 14:40 25,4 C 22,8 C 78 % 1006,6 hPa 0,0 l/m 2 min 2 min 4,4 UV-I 773 W/m 12,6 km/h (3 Bft)
06.07.2014 14:42 25,7 C 22,8 C 78 % 1006,5 hPa 0,0 l/m 2 min 2 min 4,1 UV-I 773 W/m 25,1 km/h (4 Bft)
06.07.2014 14:44 25,8 C 22,8 C 76 % 1006,4 hPa 0,0 l/m 2 min 0 min 3,8 UV-I 464 W/m 16,7 km/h (3 Bft)
06.07.2014 14:46 26,0 C 22,8 C 76 % 1006,4 hPa 0,0 l/m 2 min 0 min 2,9 UV-I 464 W/m 14,6 km/h (3 Bft)
06.07.2014 14:48 26,0 C 22,8 C 75 % 1006,3 hPa 0,0 l/m 0 min 0 min 2,6 UV-I 276 W/m 20,9 km/h (4 Bft)
06.07.2014 14:50 25,9 C 21,7 C 71 % 1006,4 hPa 0,0 l/m 0 min 0 min 1,8 UV-I 213 W/m 23,0 km/h (4 Bft)
06.07.2014 14:52 25,7 C 21,1 C 69 % 1006,5 hPa 0,0 l/m 0 min 0 min 1,1 UV-I 153 W/m 31,4 km/h (5 Bft)
06.07.2014 14:54 25,6 C 21,1 C 70 % 1006,5 hPa 0,0 l/m 0 min 0 min 0,8 UV-I 120 W/m 20,9 km/h (4 Bft)
06.07.2014 14:56 25,3 C 20,6 C 70 % 1006,3 hPa 0,0 l/m 0 min 0 min 0,6 UV-I 102 W/m 35,6 km/h (5 Bft)
06.07.2014 14:58 25,2 C 20,6 C 70 % 1006,4 hPa 0,0 l/m 0 min 2 min 0,0 UV-I 91 W/m 29,3 km/h (5 Bft)
06.07.2014 15:00 25,0 C 20,0 C 71 % 1006,5 hPa 0,0 l/m 0 min 2 min 0,0 UV-I 90 W/m 31,4 km/h (5 Bft)
06.07.2014 15:02 24,6 C 19,4 C 71 % 1006,6 hPa 0,0 l/m 0 min 2 min 0,0 UV-I 77 W/m 31,4 km/h (5 Bft)
06.07.2014 15:04 24,1 C 18,9 C 75 % 1006,7 hPa 0,4 l/m 0 min 2 min 0,0 UV-I 70 W/m 29,3 km/h (5 Bft)
06.07.2014 15:06 23,5 C 18,9 C 77 % 1006,8 hPa 0,4 l/m 0 min 2 min 0,0 UV-I 60 W/m 35,6 km/h (5 Bft)
06.07.2014 15:08 22,9 C 18,9 C 81 % 1006,9 hPa 0,8 l/m 0 min 2 min 0,0 UV-I 39 W/m 27,2 km/h (4 Bft)
06.07.2014 15:10 22,2 C 18,3 C 83 % 1006,9 hPa 0,4 l/m 0 min 2 min 0,0 UV-I 39 W/m 31,4 km/h (5 Bft)
06.07.2014 15:12 21,7 C 18,3 C 85 % 1006,8 hPa 0,2 l/m 0 min 2 min 0,0 UV-I 42 W/m 18,8 km/h (3 Bft)
06.07.2014 15:14 21,3 C 18,3 C 87 % 1006,9 hPa 0,2 l/m 0 min 2 min 0,0 UV-I 56 W/m 16,7 km/h (3 Bft)
06.07.2014 15:16 21,0 C 18,3 C 88 % 1007,0 hPa 0,2 l/m 0 min 2 min 0,0 UV-I 67 W/m 18,8 km/h (3 Bft)
06.07.2014 15:18 20,8 C 18,3 C 90 % 1006,9 hPa 1,8 l/m 0 min 2 min 0,0 UV-I 76 W/m 25,1 km/h (4 Bft)
06.07.2014 15:20 20,5 C 18,3 C 90 % 1006,6 hPa 0,2 l/m 0 min 2 min 0,0 UV-I 67 W/m 29,3 km/h (5 Bft)
06.07.2014 15:22 20,4 C 18,3 C 90 % 1006,7 hPa 0,0 l/m 0 min 2 min 0,0 UV-I 79 W/m 18,8 km/h (3 Bft)
06.07.2014 15:24 20,4 C 18,3 C 91 % 1006,6 hPa 0,2 l/m 0 min 2 min 0,0 UV-I 107 W/m 27,2 km/h (4 Bft)
06.07.2014 15:26 20,3 C 18,3 C 91 % 1006,5 hPa 0,0 l/m 0 min 2 min 0,6 UV-I 134 W/m 16,7 km/h (3 Bft)
06.07.2014 15:28 20,3 C 18,3 C 92 % 1006,5 hPa 0,0 l/m 0 min 2 min 0,0 UV-I 90 W/m 12,6 km/h (3 Bft)
06.07.2014 15:30 20,4 C 18,9 C 92 % 1006,9 hPa 0,2 l/m 0 min 2 min 0,0 UV-I 44 W/m 25,1 km/h (4 Bft)
06.07.2014 15:32 20,3 C 18,3 C 92 % 1007,1 hPa 1,4 l/m 0 min 2 min 0,0 UV-I 70 W/m 33,5 km/h (5 Bft)
06.07.2014 15:34 20,2 C 18,3 C 93 % 1006,9 hPa 0,2 l/m 0 min 2 min 0,0 UV-I 111 W/m 18,8 km/h (3 Bft)
06.07.2014 15:36 20,2 C 18,3 C 93 % 1007,0 hPa 0,0 l/m 0 min 2 min 0,7 UV-I 155 W/m 18,8 km/h (3 Bft)
06.07.2014 15:38 20,2 C 18,9 C 94 % 1006,9 hPa 0,2 l/m 0 min 2 min 0,8 UV-I 167 W/m 25,1 km/h (4 Bft)
06.07.2014 15:40 20,3 C 18,9 C 94 % 1007,0 hPa 0,2 l/m 0 min 2 min 0,8 UV-I 158 W/m 20,9 km/h (4 Bft)
06.07.2014 15:42 20,3 C 18,9 C 94 % 1006,9 hPa 0,0 l/m 0 min 2 min 0,8 UV-I 155 W/m 20,9 km/h (4 Bft)
06.07.2014 15:44 20,4 C 18,9 C 95 % 1006,9 hPa 0,0 l/m 0 min 2 min 0,8 UV-I 155 W/m 16,7 km/h (3 Bft)
06.07.2014 15:46 20,4 C 18,9 C 95 % 1006,9 hPa 0,0 l/m 0 min 2 min 0,8 UV-I 160 W/m 20,9 km/h (4 Bft)
06.07.2014 15:48 20,5 C 18,9 C 95 % 1006,8 hPa 0,0 l/m 0 min 2 min 0,8 UV-I 171 W/m 23,0 km/h (4 Bft)
06.07.2014 15:50 20,4 C 18,9 C 95 % 1006,7 hPa 0,0 l/m 0 min 2 min 1,0 UV-I 209 W/m 14,6 km/h (3 Bft)
06.07.2014 15:52 20,4 C 18,9 C 94 % 1006,6 hPa 0,0 l/m 0 min 0 min 1,1 UV-I 221 W/m 20,9 km/h (4 Bft)
06.07.2014 15:54 20,5 C 19,4 C 94 % 1006,5 hPa 0,0 l/m 0 min 2 min 1,2 UV-I 214 W/m 12,6 km/h (3 Bft)
06.07.2014 15:56 20,6 C 19,4 C 95 % 1006,5 hPa 0,0 l/m 0 min 2 min 1,1 UV-I 190 W/m 20,9 km/h (4 Bft)
06.07.2014 15:58 20,6 C 19,4 C 95 % 1006,5 hPa 0,0 l/m 0 min 2 min 0,9 UV-I 178 W/m 16,7 km/h (3 Bft)
06.07.2014 16:00 20,7 C 19,4 C 94 % 1006,4 hPa 0,0 l/m 0 min 2 min 1,0 UV-I 190 W/m 10,5 km/h (2 Bft)
06.07.2014 16:02 20,6 C 19,4 C 94 % 1006,4 hPa 0,0 l/m 0 min 2 min 0,9 UV-I 178 W/m 10,5 km/h (2 Bft)
06.07.2014 16:04 20,7 C 19,4 C 94 % 1006,3 hPa 0,0 l/m 0 min 2 min 0,8 UV-I 156 W/m 12,6 km/h (3 Bft)
06.07.2014 16:06 20,7 C 19,4 C 94 % 1006,2 hPa 0,0 l/m 0 min 2 min 0,8 UV-I 155 W/m 10,5 km/h (2 Bft)
06.07.2014 16:08 20,6 C 19,4 C 94 % 1006,1 hPa 0,0 l/m 0 min 2 min 0,9 UV-I 174 W/m 6,3 km/h (2 Bft)
06.07.2014 16:10 20,7 C 19,4 C 94 % 1006,0 hPa 0,0 l/m 0 min 2 min 1,0 UV-I 181 W/m 6,3 km/h (2 Bft)
06.07.2014 16:12 20,8 C 19,4 C 94 % 1006,0 hPa 0,0 l/m 0 min 2 min 1,1 UV-I 190 W/m 0,0 km/h (0 Bft)
06.07.2014 16:14 20,8 C 19,4 C 94 % 1006,1 hPa 0,0 l/m 0 min 0 min 1,2 UV-I 207 W/m 4,2 km/h (1 Bft)
06.07.2014 16:16 20,9 C 19,4 C 94 % 1006,2 hPa 0,0 l/m 0 min 0 min 1,3 UV-I 243 W/m 6,3 km/h (2 Bft)
06.07.2014 16:18 20,8 C 19,4 C 94 % 1006,2 hPa 0,0 l/m 0 min 0 min 1,5 UV-I 283 W/m 4,2 km/h (1 Bft)
06.07.2014 16:20 21,0 C 20,0 C 94 % 1006,1 hPa 0,0 l/m 0 min 2 min 1,4 UV-I 255 W/m 6,3 km/h (2 Bft)
06.07.2014 16:22 21,1 C 20,0 C 94 % 1006,1 hPa 0,0 l/m 0 min 2 min 1,3 UV-I 223 W/m 6,3 km/h (2 Bft)
06.07.2014 16:24 21,1 C 20,0 C 94 % 1006,1 hPa 0,0 l/m 0 min 2 min 1,2 UV-I 204 W/m 6,3 km/h (2 Bft)
06.07.2014 16:26 21,1 C 20,0 C 94 % 1006,1 hPa 0,0 l/m 0 min 0 min 1,0 UV-I 181 W/m 8,4 km/h (2 Bft)
06.07.2014 16:28 21,1 C 20,0 C 93 % 1006,1 hPa 0,0 l/m 0 min 0 min 0,9 UV-I 172 W/m 10,5 km/h (2 Bft)
06.07.2014 16:30 21,1 C 20,0 C 93 % 1006,1 hPa 0,0 l/m 0 min 0 min 0,9 UV-I 179 W/m 4,2 km/h (1 Bft)
06.07.2014 16:32 21,2 C 20,0 C 94 % 1006,0 hPa 0,0 l/m 0 min 0 min 0,9 UV-I 178 W/m 0,0 km/h (0 Bft)
06.07.2014 16:34 21,2 C 20,0 C 93 % 1006,0 hPa 0,0 l/m 0 min 0 min 0,8 UV-I 174 W/m 2,1 km/h (1 Bft)
06.07.2014 16:36 21,2 C 20,0 C 93 % 1006,0 hPa 0,0 l/m 0 min 0 min 0,7 UV-I 176 W/m 8,4 km/h (2 Bft)
06.07.2014 16:38 21,2 C 20,0 C 93 % 1005,9 hPa 0,0 l/m 0 min 0 min 0,8 UV-I 179 W/m 8,4 km/h (2 Bft)
06.07.2014 16:40 21,3 C 20,0 C 93 % 1005,9 hPa 0,0 l/m 0 min 0 min 0,8 UV-I 179 W/m 0,0 km/h (0 Bft)
06.07.2014 16:42 21,4 C 20,0 C 94 % 1005,9 hPa 0,0 l/m 0 min 0 min 0,7 UV-I 172 W/m 2,1 km/h (1 Bft)
06.07.2014 16:44 21,4 C 20,0 C 94 % 1005,8 hPa 0,0 l/m 0 min 0 min 0,7 UV-I 169 W/m 0,0 km/h (0 Bft)
06.07.2014 16:46 21,6 C 20,0 C 94 % 1005,8 hPa 0,0 l/m 0 min 0 min 0,7 UV-I 185 W/m 0,0 km/h (0 Bft)
06.07.2014 16:48 21,4 C 20,6 C 93 % 1005,8 hPa 0,0 l/m 0 min 0 min 0,9 UV-I 204 W/m 0,0 km/h (0 Bft)
06.07.2014 16:50 21,5 C 20,6 C 93 % 1005,7 hPa 0,0 l/m 0 min 0 min 0,9 UV-I 195 W/m 0,0 km/h (0 Bft)
06.07.2014 16:52 21,6 C 20,6 C 93 % 1005,7 hPa 0,0 l/m 0 min 0 min 0,8 UV-I 186 W/m 2,1 km/h (1 Bft)
06.07.2014 16:54 21,7 C 20,6 C 94 % 1005,6 hPa 0,0 l/m 0 min 0 min 0,8 UV-I 185 W/m 0,0 km/h (0 Bft)
06.07.2014 16:56 21,7 C 20,6 C 93 % 1005,6 hPa 0,0 l/m 0 min 0 min 0,7 UV-I 176 W/m 6,3 km/h (2 Bft)
06.07.2014 16:58 21,7 C 20,6 C 93 % 1005,5 hPa 0,0 l/m 0 min 0 min 0,7 UV-I 179 W/m 6,3 km/h (2 Bft)
06.07.2014 17:00 21,7 C 20,6 C 93 % 1005,6 hPa 0,0 l/m 0 min 0 min 0,7 UV-I 193 W/m 8,4 km/h (2 Bft)
06.07.2014 17:02 21,6 C 20,6 C 92 % 1005,5 hPa 0,0 l/m 0 min 0 min 0,8 UV-I 185 W/m 0,0 km/h (0 Bft)
06.07.2014 17:04 21,7 C 20,6 C 93 % 1005,5 hPa 0,0 l/m 0 min 0 min 0,7 UV-I 172 W/m 4,2 km/h (1 Bft)
06.07.2014 17:06 21,7 C 20,6 C 93 % 1005,5 hPa 0,0 l/m 0 min 0 min 0,6 UV-I 172 W/m 2,1 km/h (1 Bft)
06.07.2014 17:08 21,7 C 20,6 C 92 % 1005,5 hPa 0,0 l/m 0 min 0 min 0,7 UV-I 176 W/m 6,3 km/h (2 Bft)
06.07.2014 17:10 21,7 C 20,6 C 92 % 1005,5 hPa 0,0 l/m 0 min 0 min 0,7 UV-I 176 W/m 8,4 km/h (2 Bft)
06.07.2014 17:12 21,7 C 20,6 C 92 % 1005,4 hPa 0,0 l/m 0 min 0 min 0,6 UV-I 181 W/m 8,4 km/h (2 Bft)
06.07.2014 17:14 21,8 C 20,6 C 92 % 1005,4 hPa 0,0 l/m 0 min 0 min 0,6 UV-I 181 W/m 6,3 km/h (2 Bft)
06.07.2014 17:16 21,9 C 20,6 C 92 % 1005,4 hPa 0,0 l/m 0 min 0 min 0,6 UV-I 172 W/m 6,3 km/h (2 Bft)
06.07.2014 17:18 21,9 C 20,6 C 92 % 1005,4 hPa 0,0 l/m 0 min 0 min 0,5 UV-I 165 W/m 8,4 km/h (2 Bft)
06.07.2014 17:20 21,9 C 20,6 C 91 % 1005,4 hPa 0,0 l/m 0 min 0 min 0,5 UV-I 178 W/m 2,1 km/h (1 Bft)
06.07.2014 17:22 22,1 C 20,6 C 92 % 1005,5 hPa 0,0 l/m 0 min 0 min 0,6 UV-I 197 W/m 0,0 km/h (0 Bft)
06.07.2014 17:24 22,1 C 20,6 C 92 % 1005,4 hPa 0,0 l/m 0 min 0 min 0,6 UV-I 199 W/m 0,0 km/h (0 Bft)
06.07.2014 17:26 22,0 C 20,6 C 92 % 1005,4 hPa 0,0 l/m 0 min 0 min 0,5 UV-I 181 W/m 8,4 km/h (2 Bft)
06.07.2014 17:28 22,0 C 20,6 C 91 % 1005,4 hPa 0,0 l/m 0 min 0 min 0,0 UV-I 162 W/m 10,5 km/h (2 Bft)
06.07.2014 17:30 21,9 C 20,6 C 90 % 1005,4 hPa 0,0 l/m 0 min 0 min 0,0 UV-I 156 W/m 14,6 km/h (3 Bft)
06.07.2014 17:32 21,9 C 20,6 C 89 % 1005,4 hPa 0,0 l/m 0 min 0 min 0,5 UV-I 163 W/m 14,6 km/h (3 Bft)
06.07.2014 17:34 22,0 C 20,6 C 89 % 1005,3 hPa 0,0 l/m 0 min 0 min 0,5 UV-I 171 W/m 10,5 km/h (2 Bft)
06.07.2014 17:36 21,9 C 20,6 C 90 % 1005,2 hPa 0,0 l/m 0 min 0 min 0,0 UV-I 165 W/m 10,5 km/h (2 Bft)
06.07.2014 17:38 22,0 C 20,6 C 90 % 1005,2 hPa 0,0 l/m 0 min 0 min 0,5 UV-I 178 W/m 6,3 km/h (2 Bft)
06.07.2014 17:40 22,0 C 20,6 C 90 % 1005,2 hPa 0,0 l/m 0 min 0 min 0,5 UV-I 153 W/m 8,4 km/h (2 Bft)
06.07.2014 17:42 22,0 C 20,6 C 90 % 1005,2 hPa 0,0 l/m 0 min 0 min 0,5 UV-I 155 W/m 14,6 km/h (3 Bft)
06.07.2014 17:44 21,9 C 20,6 C 90 % 1005,2 hPa 0,0 l/m 0 min 0 min 0,7 UV-I 188 W/m 14,6 km/h (3 Bft)
06.07.2014 17:46 21,9 C 20,6 C 90 % 1005,1 hPa 0,0 l/m 0 min 0 min 0,8 UV-I 239 W/m 16,7 km/h (3 Bft)
06.07.2014 17:48 22,1 C 20,6 C 90 % 1005,0 hPa 0,0 l/m 0 min 0 min 0,9 UV-I 258 W/m 8,4 km/h (2 Bft)
06.07.2014 17:50 22,2 C 20,6 C 90 % 1005,0 hPa 0,0 l/m 2 min 0 min 0,8 UV-I 540 W/m 12,6 km/h (3 Bft)
06.07.2014 17:52 22,4 C 20,6 C 89 % 1004,9 hPa 0,0 l/m 0 min 0 min 0,8 UV-I 246 W/m 10,5 km/h (2 Bft)
06.07.2014 17:54 22,6 C 20,6 C 89 % 1005,0 hPa 0,0 l/m 2 min 0 min 0,8 UV-I 272 W/m 16,7 km/h (3 Bft)
06.07.2014 17:56 22,6 C 20,6 C 89 % 1004,9 hPa 0,0 l/m 2 min 0 min 0,6 UV-I 299 W/m 12,6 km/h (3 Bft)
06.07.2014 17:58 22,6 C 20,6 C 88 % 1004,8 hPa 0,0 l/m 0 min 0 min 0,5 UV-I 158 W/m 14,6 km/h (3 Bft)
06.07.2014 18:00 22,5 C 20,6 C 88 % 1004,8 hPa 0,0 l/m 0 min 0 min 0,5 UV-I 158 W/m 20,9 km/h (4 Bft)
06.07.2014 18:02 22,4 C 20,6 C 88 % 1004,7 hPa 0,0 l/m 0 min 0 min 0,5 UV-I 176 W/m 16,7 km/h (3 Bft)
06.07.2014 18:05 22,4 C 20,6 C 88 % 1004,6 hPa 0,0 l/m 0 min 0 min 0,6 UV-I 195 W/m 10,5 km/h (2 Bft)
06.07.2014 18:06 22,5 C 21,1 C 88 % 1004,6 hPa 0,0 l/m 0 min 0 min 0,7 UV-I 195 W/m 10,5 km/h (2 Bft)
06.07.2014 18:08 22,6 C 21,1 C 88 % 1004,6 hPa 0,0 l/m 0 min 0 min 0,6 UV-I 158 W/m 12,6 km/h (3 Bft)
06.07.2014 18:10 22,7 C 21,1 C 87 % 1004,5 hPa 0,0 l/m 0 min 0 min 0,5 UV-I 134 W/m 12,6 km/h (3 Bft)
06.07.2014 18:12 22,6 C 21,1 C 87 % 1004,5 hPa 0,0 l/m 0 min 0 min 0,5 UV-I 130 W/m 10,5 km/h (2 Bft)
06.07.2014 18:14 22,6 C 20,6 C 88 % 1004,4 hPa 0,0 l/m 0 min 0 min 0,5 UV-I 130 W/m 12,6 km/h (3 Bft)
06.07.2014 18:16 22,6 C 20,6 C 88 % 1004,4 hPa 0,0 l/m 2 min 0 min 0,6 UV-I 417 W/m 12,6 km/h (3 Bft)
06.07.2014 18:18 22,6 C 20,6 C 88 % 1004,4 hPa 0,0 l/m 2 min 0 min 0,5 UV-I 420 W/m 12,6 km/h (3 Bft)
06.07.2014 18:20 22,7 C 20,6 C 86 % 1004,3 hPa 0,0 l/m 2 min 0 min 0,6 UV-I 306 W/m 8,4 km/h (2 Bft)
06.07.2014 18:22 22,8 C 20,6 C 86 % 1004,2 hPa 0,0 l/m 2 min 0 min 0,5 UV-I 413 W/m 12,6 km/h (3 Bft)
06.07.2014 18:24 22,9 C 20,6 C 86 % 1004,2 hPa 0,0 l/m 0 min 0 min 0,5 UV-I 125 W/m 10,5 km/h (2 Bft)
06.07.2014 18:26 22,9 C 20,6 C 86 % 1004,2 hPa 0,0 l/m 2 min 0 min 0,5 UV-I 362 W/m 6,3 km/h (2 Bft)
06.07.2014 18:28 23,0 C 20,6 C 86 % 1004,2 hPa 0,0 l/m 2 min 0 min 0,5 UV-I 348 W/m 16,7 km/h (3 Bft)
06.07.2014 18:30 23,1 C 20,6 C 84 % 1004,3 hPa 0,0 l/m 2 min 0 min 0,5 UV-I 348 W/m 14,6 km/h (3 Bft)
06.07.2014 18:32 23,1 C 20,6 C 86 % 1004,2 hPa 0,0 l/m 2 min 0 min 0,0 UV-I 339 W/m 16,7 km/h (3 Bft)
06.07.2014 18:34 23,2 C 20,6 C 85 % 1004,2 hPa 0,0 l/m 2 min 0 min 0,0 UV-I 336 W/m 4,2 km/h (1 Bft)
06.07.2014 18:36 23,3 C 20,6 C 85 % 1004,2 hPa 0,0 l/m 2 min 0 min 0,0 UV-I 339 W/m 10,5 km/h (2 Bft)
06.07.2014 18:38 23,3 C 20,6 C 85 % 1004,3 hPa 0,0 l/m 2 min 0 min 0,0 UV-I 327 W/m 8,4 km/h (2 Bft)
06.07.2014 18:40 23,4 C 20,6 C 85 % 1004,3 hPa 0,0 l/m 2 min 0 min 0,0 UV-I 285 W/m 14,6 km/h (3 Bft)
06.07.2014 18:42 23,3 C 20,6 C 85 % 1004,3 hPa 0,0 l/m 2 min 0 min 0,0 UV-I 327 W/m 10,5 km/h (2 Bft)
06.07.2014 18:44 23,4 C 20,6 C 86 % 1004,2 hPa 0,0 l/m 0 min 0 min 0,0 UV-I 111 W/m 0,0 km/h (0 Bft)
06.07.2014 18:46 23,3 C 20,6 C 86 % 1004,2 hPa 0,0 l/m 0 min 0 min 0,0 UV-I 76 W/m 10,5 km/h (2 Bft)
06.07.2014 18:48 23,3 C 20,6 C 86 % 1004,1 hPa 0,0 l/m 0 min 0 min 0,0 UV-I 77 W/m 8,4 km/h (2 Bft)
06.07.2014 18:50 23,2 C 20,6 C 86 % 1004,2 hPa 0,0 l/m 0 min 0 min 0,0 UV-I 90 W/m 6,3 km/h (2 Bft)
06.07.2014 18:52 23,2 C 20,6 C 86 % 1004,0 hPa 0,0 l/m 0 min 0 min 0,0 UV-I 134 W/m 10,5 km/h (2 Bft)
06.07.2014 18:54 23,2 C 20,6 C 86 % 1004,0 hPa 0,0 l/m 0 min 0 min 0,0 UV-I 137 W/m 10,5 km/h (2 Bft)
06.07.2014 18:56 23,2 C 20,6 C 87 % 1004,0 hPa 0,0 l/m 0 min 0 min 0,0 UV-I 153 W/m 2,1 km/h (1 Bft)
06.07.2014 18:58 23,2 C 21,1 C 87 % 1004,0 hPa 0,0 l/m 0 min 0 min 0,0 UV-I 130 W/m 10,5 km/h (2 Bft)
06.07.2014 19:00 23,3 C 21,1 C 88 % 1004,0 hPa 0,0 l/m 0 min 0 min 0,0 UV-I 98 W/m 6,3 km/h (2 Bft)
06.07.2014 19:02 23,3 C 21,1 C 87 % 1003,9 hPa 0,0 l/m 0 min 0 min 0,0 UV-I 88 W/m 8,4 km/h (2 Bft)
06.07.2014 19:04 23,3 C 20,6 C 87 % 1004,0 hPa 0,0 l/m 0 min 0 min 0,0 UV-I 83 W/m 8,4 km/h (2 Bft)
06.07.2014 19:06 23,3 C 20,6 C 87 % 1003,9 hPa 0,0 l/m 0 min 0 min 0,0 UV-I 60 W/m 12,6 km/h (3 Bft)
06.07.2014 19:08 23,4 C 20,6 C 87 % 1003,9 hPa 0,0 l/m 0 min 0 min 0,0 UV-I 54 W/m 2,1 km/h (1 Bft)
06.07.2014 19:10 23,4 C 20,6 C 87 % 1003,8 hPa 0,0 l/m 0 min 0 min 0,0 UV-I 39 W/m 10,5 km/h (2 Bft)
06.07.2014 19:12 23,4 C 20,6 C 87 % 1003,8 hPa 0,0 l/m 0 min 0 min 0,0 UV-I 32 W/m 8,4 km/h (2 Bft)
06.07.2014 19:14 23,3 C 20,6 C 87 % 1003,9 hPa 0,0 l/m 0 min 0 min 0,0 UV-I 32 W/m 8,4 km/h (2 Bft)
06.07.2014 19:16 23,3 C 20,6 C 87 % 1003,8 hPa 0,0 l/m 0 min 0 min 0,0 UV-I 32 W/m 8,4 km/h (2 Bft)
06.07.2014 19:18 23,3 C 20,6 C 87 % 1003,9 hPa 0,0 l/m 0 min 0 min 0,0 UV-I 30 W/m 12,6 km/h (3 Bft)
06.07.2014 19:20 23,2 C 20,6 C 87 % 1004,1 hPa 0,0 l/m 0 min 0 min 0,0 UV-I 25 W/m 6,3 km/h (2 Bft)
06.07.2014 19:22 23,2 C 20,6 C 87 % 1004,0 hPa 0,0 l/m 0 min 0 min 0,0 UV-I 25 W/m 10,5 km/h (2 Bft)
06.07.2014 19:24 23,2 C 20,6 C 87 % 1004,1 hPa 0,0 l/m 0 min 0 min 0,0 UV-I 23 W/m 2,1 km/h (1 Bft)
06.07.2014 19:26 23,2 C 20,0 C 87 % 1004,2 hPa 0,0 l/m 0 min 0 min 0,0 UV-I 16 W/m 12,6 km/h (3 Bft)
06.07.2014 19:28 23,2 C 20,0 C 87 % 1004,1 hPa 0,0 l/m 0 min 0 min 0,0 UV-I 14 W/m 10,5 km/h (2 Bft)
06.07.2014 19:30 23,2 C 20,0 C 88 % 1004,1 hPa 0,0 l/m 0 min 0 min 0,0 UV-I 12 W/m 12,6 km/h (3 Bft)
06.07.2014 19:32 23,1 C 20,0 C 88 % 1004,4 hPa 0,0 l/m 0 min 0 min 0,0 UV-I 11 W/m 25,1 km/h (4 Bft)
06.07.2014 19:34 23,1 C 20,6 C 87 % 1004,4 hPa 0,0 l/m 0 min 0 min 0,0 UV-I 11 W/m 37,7 km/h (5 Bft)
06.07.2014 19:36 23,1 C 20,6 C 86 % 1004,5 hPa 0,0 l/m 0 min 0 min 0,0 UV-I 12 W/m 35,6 km/h (5 Bft)
06.07.2014 19:38 23,2 C 20,6 C 84 % 1004,6 hPa 0,0 l/m 0 min 2 min 0,0 UV-I 18 W/m 52,3 km/h (7 Bft)
06.07.2014 19:40 23,2 C 20,0 C 82 % 1004,9 hPa 0,0 l/m 0 min 2 min 0,0 UV-I 21 W/m 37,7 km/h (5 Bft)
06.07.2014 19:42 22,8 C 19,4 C 82 % 1004,9 hPa 0,0 l/m 0 min 2 min 0,0 UV-I 28 W/m 46,0 km/h (6 Bft)
06.07.2014 19:44 22,4 C 19,4 C 83 % 1005,2 hPa 0,0 l/m 0 min 2 min 0,0 UV-I 19 W/m 31,4 km/h (5 Bft)
06.07.2014 19:46 22,0 C 18,9 C 84 % 1005,3 hPa 0,0 l/m 0 min 0 min 0,0 UV-I 16 W/m 23,0 km/h (4 Bft)
06.07.2014 19:48 21,7 C 18,9 C 85 % 1005,4 hPa 0,0 l/m 0 min 2 min 0,0 UV-I 12 W/m 41,8 km/h (6 Bft)
06.07.2014 19:50 21,4 C 18,9 C 86 % 1005,7 hPa 0,0 l/m 0 min 2 min 0,0 UV-I 12 W/m 43,9 km/h (6 Bft)
06.07.2014 19:52 21,3 C 18,9 C 86 % 1005,7 hPa 0,0 l/m 0 min 2 min 0,0 UV-I 21 W/m 46,0 km/h (6 Bft)
06.07.2014 19:54 21,2 C 18,9 C 87 % 1005,8 hPa 0,0 l/m 0 min 2 min 0,0 UV-I 25 W/m 35,6 km/h (5 Bft)
06.07.2014 19:56 21,1 C 18,9 C 87 % 1006,0 hPa 0,0 l/m 0 min 0 min 0,0 UV-I 42 W/m 43,9 km/h (6 Bft)
06.07.2014 19:58 21,0 C 18,9 C 88 % 1005,9 hPa 0,0 l/m 0 min 0 min 0,0 UV-I 56 W/m 41,8 km/h (6 Bft)
06.07.2014 20:00 20,9 C 18,9 C 88 % 1005,9 hPa 0,0 l/m 0 min 0 min 0,0 UV-I 63 W/m 37,7 km/h (5 Bft)
06.07.2014 20:02 20,8 C 18,9 C 89 % 1005,9 hPa 0,0 l/m 0 min 0 min 0,0 UV-I 63 W/m 29,3 km/h (5 Bft)
06.07.2014 20:04 20,8 C 18,9 C 89 % 1005,8 hPa 0,0 l/m 0 min 0 min 0,0 UV-I 65 W/m 29,3 km/h (5 Bft)
06.07.2014 20:06 20,7 C 18,9 C 89 % 1005,9 hPa 0,0 l/m 0 min 0 min 0,0 UV-I 65 W/m 37,7 km/h (5 Bft)
06.07.2014 20:08 20,7 C 18,9 C 90 % 1006,0 hPa 0,0 l/m 0 min 0 min 0,0 UV-I 65 W/m 29,3 km/h (5 Bft)
06.07.2014 20:10 20,7 C 18,9 C 90 % 1006,1 hPa 0,0 l/m 0 min 0 min 0,0 UV-I 63 W/m 27,2 km/h (4 Bft)
06.07.2014 20:12 20,7 C 18,9 C 90 % 1006,1 hPa 0,0 l/m 0 min 0 min 0,0 UV-I 62 W/m 37,7 km/h (5 Bft)
06.07.2014 20:14 20,7 C 18,9 C 90 % 1006,2 hPa 0,0 l/m 0 min 0 min 0,0 UV-I 58 W/m 33,5 km/h (5 Bft)
06.07.2014 20:16 20,6 C 18,9 C 90 % 1006,2 hPa 0,0 l/m 0 min 0 min 0,0 UV-I 53 W/m 27,2 km/h (4 Bft)
06.07.2014 20:18 20,6 C 18,9 C 90 % 1006,2 hPa 0,0 l/m 0 min 0 min 0,0 UV-I 44 W/m 39,7 km/h (6 Bft)
06.07.2014 20:20 20,5 C 18,9 C 91 % 1006,2 hPa 0,0 l/m 0 min 2 min 0,0 UV-I 33 W/m 16,7 km/h (3 Bft)
06.07.2014 20:22 20,4 C 18,9 C 91 % 1006,3 hPa 0,0 l/m 0 min 2 min 0,0 UV-I 30 W/m 20,9 km/h (4 Bft)
06.07.2014 20:24 20,4 C 18,3 C 92 % 1006,2 hPa 0,0 l/m 0 min 2 min 0,0 UV-I 28 W/m 18,8 km/h (3 Bft)
06.07.2014 20:26 20,3 C 18,3 C 92 % 1006,3 hPa 0,0 l/m 0 min 2 min 0,0 UV-I 28 W/m 23,0 km/h (4 Bft)
06.07.2014 20:28 20,3 C 18,3 C 92 % 1006,3 hPa 0,0 l/m 0 min 2 min 0,0 UV-I 28 W/m 25,1 km/h (4 Bft)
06.07.2014 20:30 20,2 C 18,3 C 93 % 1006,5 hPa 0,0 l/m 0 min 2 min 0,0 UV-I 28 W/m 25,1 km/h (4 Bft)
06.07.2014 20:32 20,2 C 18,3 C 93 % 1006,5 hPa 0,0 l/m 0 min 2 min 0,0 UV-I 28 W/m 12,6 km/h (3 Bft)
06.07.2014 20:34 20,2 C 18,3 C 93 % 1006,5 hPa 0,0 l/m 0 min 2 min 0,0 UV-I 30 W/m 25,1 km/h (4 Bft)
06.07.2014 20:36 20,1 C 18,3 C 93 % 1006,5 hPa 0,0 l/m 0 min 2 min 0,0 UV-I 30 W/m 18,8 km/h (3 Bft)
06.07.2014 20:38 20,0 C 18,3 C 94 % 1006,5 hPa 0,0 l/m 0 min 2 min 0,0 UV-I 32 W/m 12,6 km/h (3 Bft)
06.07.2014 20:40 19,9 C 18,3 C 94 % 1006,5 hPa 0,0 l/m 0 min 2 min 0,0 UV-I 30 W/m 12,6 km/h (3 Bft)
06.07.2014 20:42 19,8 C 18,3 C 94 % 1006,4 hPa 0,2 l/m 0 min 2 min 0,0 UV-I 30 W/m 16,7 km/h (3 Bft)
06.07.2014 20:44 19,8 C 17,8 C 94 % 1006,4 hPa 0,0 l/m 0 min 2 min 0,0 UV-I 28 W/m 23,0 km/h (4 Bft)
06.07.2014 20:46 19,7 C 17,8 C 94 % 1006,5 hPa 0,0 l/m 0 min 2 min 0,0 UV-I 26 W/m 25,1 km/h (4 Bft)
06.07.2014 20:48 19,6 C 17,8 C 94 % 1006,4 hPa 0,0 l/m 0 min 2 min 0,0 UV-I 25 W/m 18,8 km/h (3 Bft)
06.07.2014 20:50 19,6 C 17,8 C 94 % 1006,5 hPa 0,0 l/m 0 min 2 min 0,0 UV-I 23 W/m 14,6 km/h (3 Bft)
06.07.2014 20:52 19,6 C 17,8 C 95 % 1006,6 hPa 0,0 l/m 0 min 2 min 0,0 UV-I 19 W/m 10,5 km/h (2 Bft)
06.07.2014 20:54 19,5 C 17,8 C 95 % 1006,5 hPa 0,0 l/m 0 min 2 min 0,0 UV-I 16 W/m 18,8 km/h (3 Bft)
06.07.2014 20:56 19,4 C 17,8 C 95 % 1006,5 hPa 0,0 l/m 0 min 2 min 0,0 UV-I 14 W/m 14,6 km/h (3 Bft)
06.07.2014 20:58 19,4 C 17,8 C 95 % 1006,6 hPa 0,0 l/m 0 min 2 min 0,0 UV-I 12 W/m 16,7 km/h (3 Bft)
06.07.2014 21:00 19,3 C 17,8 C 95 % 1006,7 hPa 0,0 l/m 0 min 2 min 0,0 UV-I 12 W/m 16,7 km/h (3 Bft)
06.07.2014 21:02 19,3 C 17,8 C 95 % 1006,7 hPa 0,0 l/m 0 min 2 min 0,0 UV-I 11 W/m 12,6 km/h (3 Bft)
06.07.2014 21:04 19,2 C 17,8 C 95 % 1006,6 hPa 0,0 l/m 0 min 2 min 0,0 UV-I 9 W/m 10,5 km/h (2 Bft)
06.07.2014 21:06 19,2 C 17,8 C 95 % 1006,6 hPa 0,0 l/m 0 min 2 min 0,0 UV-I 7 W/m 10,5 km/h (2 Bft)
06.07.2014 21:08 19,1 C 17,2 C 95 % 1006,6 hPa 0,0 l/m 0 min 2 min 0,0 UV-I 7 W/m 16,7 km/h (3 Bft)
06.07.2014 21:10 19,1 C 17,2 C 95 % 1006,7 hPa 0,0 l/m 0 min 2 min 0,0 UV-I 7 W/m 12,6 km/h (3 Bft)
06.07.2014 21:12 19,0 C 17,2 C 95 % 1006,7 hPa 0,0 l/m 0 min 2 min 0,0 UV-I 5 W/m 12,6 km/h (3 Bft)
06.07.2014 21:14 18,9 C 17,2 C 95 % 1006,7 hPa 0,2 l/m 0 min 2 min 0,0 UV-I 5 W/m 10,5 km/h (2 Bft)
06.07.2014 21:16 18,9 C 17,2 C 95 % 1006,7 hPa 0,0 l/m 0 min 2 min 0,0 UV-I 5 W/m 8,4 km/h (2 Bft)
06.07.2014 21:18 18,8 C 17,2 C 95 % 1006,8 hPa 0,0 l/m 0 min 2 min 0,0 UV-I 5 W/m 20,9 km/h (4 Bft)
06.07.2014 21:20 18,8 C 17,2 C 96 % 1006,8 hPa 0,0 l/m 0 min 2 min 0,0 UV-I 7 W/m 20,9 km/h (4 Bft)
06.07.2014 21:22 18,7 C 17,2 C 96 % 1006,8 hPa 0,0 l/m 0 min 2 min 0,0 UV-I 5 W/m 14,6 km/h (3 Bft)
06.07.2014 21:24 18,7 C 17,2 C 96 % 1006,9 hPa 0,0 l/m 0 min 2 min 0,0 UV-I 5 W/m 14,6 km/h (3 Bft)
06.07.2014 21:26 18,6 C 17,2 C 96 % 1006,9 hPa 0,0 l/m 0 min 2 min 0,0 UV-I 5 W/m 14,6 km/h (3 Bft)
06.07.2014 21:28 18,6 C 17,2 C 96 % 1007,1 hPa 0,0 l/m 0 min 2 min 0,0 UV-I 0 W/m 20,9 km/h (4 Bft)
06.07.2014 21:30 18,5 C 16,7 C 96 % 1007,2 hPa 0,2 l/m 0 min 2 min 0,0 UV-I 0 W/m 31,4 km/h (5 Bft)
06.07.2014 21:32 18,3 C 16,7 C 96 % 1007,2 hPa 0,0 l/m 0 min 2 min 0,0 UV-I 0 W/m 29,3 km/h (5 Bft)
06.07.2014 21:34 18,1 C 16,7 C 96 % 1007,3 hPa 0,2 l/m 0 min 2 min 0,0 UV-I 0 W/m 16,7 km/h (3 Bft)
06.07.2014 21:36 18,0 C 16,7 C 96 % 1007,2 hPa 0,0 l/m 0 min 2 min 0,0 UV-I 0 W/m 18,8 km/h (3 Bft)
06.07.2014 21:38 17,8 C 16,1 C 95 % 1007,3 hPa 0,0 l/m 0 min 2 min 0,0 UV-I 0 W/m 14,6 km/h (3 Bft)
06.07.2014 21:40 17,7 C 16,1 C 96 % 1007,3 hPa 0,0 l/m 0 min 2 min 0,0 UV-I 0 W/m 20,9 km/h (4 Bft)
06.07.2014 21:42 17,6 C 16,1 C 96 % 1007,3 hPa 0,0 l/m 0 min 2 min 0,0 UV-I 0 W/m 18,8 km/h (3 Bft)
06.07.2014 21:44 17,6 C 16,1 C 96 % 1007,4 hPa 0,0 l/m 0 min 2 min 0,0 UV-I 0 W/m 23,0 km/h (4 Bft)
06.07.2014 21:46 17,5 C 16,1 C 96 % 1007,4 hPa 0,0 l/m 0 min 0 min 0,0 UV-I 0 W/m 23,0 km/h (4 Bft)
06.07.2014 21:48 17,4 C 16,1 C 96 % 1007,5 hPa 0,0 l/m 0 min 0 min 0,0 UV-I 0 W/m 23,0 km/h (4 Bft)
06.07.2014 21:50 17,4 C 16,1 C 96 % 1007,6 hPa 0,0 l/m 0 min 0 min 0,0 UV-I 0 W/m 14,6 km/h (3 Bft)
06.07.2014 21:52 17,3 C 16,1 C 96 % 1007,7 hPa 0,0 l/m 0 min 0 min 0,0 UV-I 0 W/m 18,8 km/h (3 Bft)
06.07.2014 21:54 17,3 C 16,1 C 96 % 1007,7 hPa 0,0 l/m 0 min 0 min 0,0 UV-I 0 W/m 14,6 km/h (3 Bft)
06.07.2014 21:56 17,3 C 16,1 C 96 % 1007,8 hPa 0,0 l/m 0 min 0 min 0,0 UV-I 0 W/m 23,0 km/h (4 Bft)
06.07.2014 21:58 17,3 C 16,1 C 96 % 1007,9 hPa 0,0 l/m 0 min 0 min 0,0 UV-I 0 W/m 18,8 km/h (3 Bft)
06.07.2014 22:00 17,2 C 16,1 C 96 % 1008,1 hPa 0,0 l/m 0 min 0 min 0,0 UV-I 0 W/m 20,9 km/h (4 Bft)
06.07.2014 22:02 17,2 C 16,1 C 96 % 1008,2 hPa 0,0 l/m 0 min 0 min 0,0 UV-I 0 W/m 16,7 km/h (3 Bft)
06.07.2014 22:04 17,2 C 16,1 C 96 % 1008,4 hPa 0,0 l/m 0 min 0 min 0,0 UV-I 0 W/m 27,2 km/h (4 Bft)
06.07.2014 22:06 17,2 C 16,1 C 96 % 1008,5 hPa 0,0 l/m 0 min 0 min 0,0 UV-I 0 W/m 14,6 km/h (3 Bft)
06.07.2014 22:08 17,1 C 16,1 C 96 % 1008,5 hPa 0,0 l/m 0 min 0 min 0,0 UV-I 0 W/m 18,8 km/h (3 Bft)
06.07.2014 22:10 17,1 C 15,6 C 96 % 1008,5 hPa 0,0 l/m 0 min 0 min 0,0 UV-I 0 W/m 27,2 km/h (4 Bft)
06.07.2014 22:12 17,0 C 15,6 C 96 % 1008,6 hPa 0,0 l/m 0 min 0 min 0,0 UV-I 0 W/m 14,6 km/h (3 Bft)
06.07.2014 22:14 16,9 C 15,6 C 96 % 1008,6 hPa 0,0 l/m 0 min 0 min 0,0 UV-I 0 W/m 35,6 km/h (5 Bft)
06.07.2014 22:16 16,9 C 15,6 C 97 % 1008,6 hPa 0,0 l/m 0 min 0 min 0,0 UV-I 0 W/m 23,0 km/h (4 Bft)
06.07.2014 22:18 16,8 C 15,6 C 97 % 1008,6 hPa 0,0 l/m 0 min 0 min 0,0 UV-I 0 W/m 18,8 km/h (3 Bft)
06.07.2014 22:20 16,8 C 15,6 C 96 % 1008,7 hPa 0,0 l/m 0 min 0 min 0,0 UV-I 0 W/m 20,9 km/h (4 Bft)
06.07.2014 22:22 16,7 C 15,6 C 96 % 1008,7 hPa 0,0 l/m 0 min 0 min 0,0 UV-I 0 W/m 20,9 km/h (4 Bft)
06.07.2014 22:24 16,7 C 15,6 C 96 % 1008,7 hPa 0,0 l/m 0 min 0 min 0,0 UV-I 0 W/m 23,0 km/h (4 Bft)
06.07.2014 22:26 16,6 C 15,6 C 96 % 1008,9 hPa 0,0 l/m 0 min 0 min 0,0 UV-I 0 W/m 18,8 km/h (3 Bft)
06.07.2014 22:28 16,6 C 15,6 C 96 % 1008,9 hPa 0,0 l/m 0 min 0 min 0,0 UV-I 0 W/m 23,0 km/h (4 Bft)
06.07.2014 22:30 16,6 C 15,6 C 96 % 1009,0 hPa 0,0 l/m 0 min 0 min 0,0 UV-I 0 W/m 23,0 km/h (4 Bft)
06.07.2014 22:32 16,6 C 15,0 C 96 % 1009,0 hPa 0,0 l/m 0 min 2 min 0,0 UV-I 0 W/m 23,0 km/h (4 Bft)
06.07.2014 22:34 16,5 C 15,0 C 96 % 1009,1 hPa 0,0 l/m 0 min 2 min 0,0 UV-I 0 W/m 18,8 km/h (3 Bft)
06.07.2014 22:36 16,5 C 15,0 C 96 % 1009,2 hPa 0,0 l/m 0 min 2 min 0,0 UV-I 0 W/m 18,8 km/h (3 Bft)
06.07.2014 22:38 16,5 C 15,0 C 96 % 1009,2 hPa 0,0 l/m 0 min 2 min 0,0 UV-I 0 W/m 12,6 km/h (3 Bft)
06.07.2014 22:40 16,5 C 15,0 C 96 % 1009,3 hPa 0,0 l/m 0 min 2 min 0,0 UV-I 0 W/m 14,6 km/h (3 Bft)
06.07.2014 22:42 16,4 C 15,0 C 96 % 1009,4 hPa 0,0 l/m 0 min 2 min 0,0 UV-I 0 W/m 8,4 km/h (2 Bft)
06.07.2014 22:44 16,4 C 15,0 C 96 % 1009,5 hPa 0,2 l/m 0 min 2 min 0,0 UV-I 0 W/m 18,8 km/h (3 Bft)
06.07.2014 22:46 16,3 C 15,0 C 96 % 1009,7 hPa 0,0 l/m 0 min 2 min 0,0 UV-I 0 W/m 29,3 km/h (5 Bft)
06.07.2014 22:48 16,3 C 15,0 C 96 % 1009,9 hPa 0,0 l/m 0 min 2 min 0,0 UV-I 0 W/m 14,6 km/h (3 Bft)
06.07.2014 22:50 16,2 C 15,0 C 96 % 1010,1 hPa 0,0 l/m 0 min 2 min 0,0 UV-I 0 W/m 10,5 km/h (2 Bft)
06.07.2014 22:52 16,2 C 15,0 C 96 % 1010,1 hPa 0,0 l/m 0 min 2 min 0,0 UV-I 0 W/m 16,7 km/h (3 Bft)
06.07.2014 22:54 16,2 C 15,0 C 96 % 1010,2 hPa 0,0 l/m 0 min 0 min 0,0 UV-I 0 W/m 14,6 km/h (3 Bft)
06.07.2014 22:56 16,1 C 15,0 C 96 % 1010,2 hPa 0,0 l/m 0 min 0 min 0,0 UV-I 0 W/m 16,7 km/h (3 Bft)
06.07.2014 22:58 16,1 C 15,0 C 96 % 1010,2 hPa 0,0 l/m 0 min 0 min 0,0 UV-I 0 W/m 10,5 km/h (2 Bft)
06.07.2014 23:00 16,1 C 15,0 C 96 % 1010,1 hPa 0,0 l/m 0 min 0 min 0,0 UV-I 0 W/m 8,4 km/h (2 Bft)
06.07.2014 23:02 16,1 C 15,0 C 96 % 1010,2 hPa 0,0 l/m 0 min 0 min 0,0 UV-I 0 W/m 8,4 km/h (2 Bft)
06.07.2014 23:04 16,1 C 15,0 C 96 % 1010,4 hPa 0,0 l/m 0 min 0 min 0,0 UV-I 0 W/m 12,6 km/h (3 Bft)
06.07.2014 23:06 16,1 C 15,0 C 96 % 1010,4 hPa 0,0 l/m 0 min 2 min 0,0 UV-I 0 W/m 12,6 km/h (3 Bft)
06.07.2014 23:08 16,0 C 15,0 C 96 % 1010,5 hPa 0,0 l/m 0 min 2 min 0,0 UV-I 0 W/m 10,5 km/h (2 Bft)
06.07.2014 23:10 16,0 C 15,0 C 96 % 1010,5 hPa 0,0 l/m 0 min 2 min 0,0 UV-I 0 W/m 12,6 km/h (3 Bft)
06.07.2014 23:12 16,0 C 15,0 C 95 % 1010,6 hPa 0,0 l/m 0 min 0 min 0,0 UV-I 0 W/m 10,5 km/h (2 Bft)
06.07.2014 23:14 16,0 C 15,0 C 95 % 1010,6 hPa 0,0 l/m 0 min 0 min 0,0 UV-I 0 W/m 10,5 km/h (2 Bft)
06.07.2014 23:16 16,0 C 15,0 C 95 % 1010,6 hPa 0,0 l/m 0 min 0 min 0,0 UV-I 0 W/m 8,4 km/h (2 Bft)
06.07.2014 23:18 16,0 C 15,0 C 96 % 1010,7 hPa 0,0 l/m 0 min 0 min 0,0 UV-I 0 W/m 6,3 km/h (2 Bft)
06.07.2014 23:20 16,0 C 15,0 C 96 % 1010,7 hPa 0,0 l/m 0 min 0 min 0,0 UV-I 0 W/m 12,6 km/h (3 Bft)
06.07.2014 23:22 15,9 C 15,0 C 96 % 1010,7 hPa 0,0 l/m 0 min 0 min 0,0 UV-I 0 W/m 12,6 km/h (3 Bft)
06.07.2014 23:24 15,9 C 15,0 C 95 % 1010,7 hPa 0,0 l/m 0 min 0 min 0,0 UV-I 0 W/m 8,4 km/h (2 Bft)
06.07.2014 23:26 15,9 C 15,0 C 95 % 1010,8 hPa 0,0 l/m 0 min 0 min 0,0 UV-I 0 W/m 8,4 km/h (2 Bft)
06.07.2014 23:28 15,9 C 15,0 C 95 % 1010,9 hPa 0,0 l/m 0 min 0 min 0,0 UV-I 0 W/m 10,5 km/h (2 Bft)
06.07.2014 23:30 15,9 C 15,0 C 95 % 1011,0 hPa 0,0 l/m 0 min 0 min 0,0 UV-I 0 W/m 10,5 km/h (2 Bft)
06.07.2014 23:32 15,9 C 15,0 C 95 % 1011,0 hPa 0,0 l/m 0 min 0 min 0,0 UV-I 0 W/m 12,6 km/h (3 Bft)
06.07.2014 23:34 15,9 C 15,0 C 95 % 1011,0 hPa 0,0 l/m 0 min 0 min 0,0 UV-I 0 W/m 10,5 km/h (2 Bft)
06.07.2014 23:36 15,9 C 15,0 C 95 % 1011,1 hPa 0,0 l/m 0 min 0 min 0,0 UV-I 0 W/m 8,4 km/h (2 Bft)
06.07.2014 23:38 15,9 C 15,0 C 95 % 1011,2 hPa 0,0 l/m 0 min 0 min 0,0 UV-I 0 W/m 8,4 km/h (2 Bft)
06.07.2014 23:40 15,9 C 14,4 C 95 % 1011,1 hPa 0,0 l/m 0 min 0 min 0,0 UV-I 0 W/m 0,0 km/h (0 Bft)
06.07.2014 23:42 15,8 C 14,4 C 95 % 1011,0 hPa 0,0 l/m 0 min 0 min 0,0 UV-I 0 W/m 10,5 km/h (2 Bft)
06.07.2014 23:44 15,8 C 14,4 C 95 % 1011,1 hPa 0,0 l/m 0 min 0 min 0,0 UV-I 0 W/m 8,4 km/h (2 Bft)
06.07.2014 23:46 15,9 C 14,4 C 95 % 1011,1 hPa 0,0 l/m 0 min 0 min 0,0 UV-I 0 W/m 2,1 km/h (1 Bft)
06.07.2014 23:48 15,9 C 14,4 C 95 % 1011,0 hPa 0,0 l/m 0 min 0 min 0,0 UV-I 0 W/m 8,4 km/h (2 Bft)
06.07.2014 23:50 15,9 C 14,4 C 95 % 1011,0 hPa 0,0 l/m 0 min 0 min 0,0 UV-I 0 W/m 6,3 km/h (2 Bft)
06.07.2014 23:52 15,9 C 14,4 C 95 % 1011,1 hPa 0,0 l/m 0 min 0 min 0,0 UV-I 0 W/m 6,3 km/h (2 Bft)
06.07.2014 23:54 15,9 C 14,4 C 95 % 1011,0 hPa 0,0 l/m 0 min 0 min 0,0 UV-I 0 W/m 8,4 km/h (2 Bft)
06.07.2014 23:56 15,9 C 15,0 C 95 % 1011,0 hPa 0,0 l/m 0 min 0 min 0,0 UV-I 0 W/m 12,6 km/h (3 Bft)
06.07.2014 23:58 15,9 C 14,4 C 95 % 1011,1 hPa 0,0 l/m 0 min 0 min 0,0 UV-I 0 W/m 12,6 km/h (3 Bft)
_ Min-Zeit 23:42 23:40 12:32 19:10 - - - - - 00:00
Minimum _ 15,8 C 14,4 C 63 % 1003,8 hPa - - - - - 0,0 km/h (0 Bft)
_ Max-Zeit 12:34 12:30 00:22 23:38 15:18 05:40 13:52 12:18 11:18 19:38
Maximum _ 26,7 C 30,0 C 98 % 1011,2 hPa 1,8 l/m 2 min 2 min 7,2 UV-I 940 W/m 52,3 km/h
SW (7 Bft)
Durchschnitt _ 20,5 C 19,0 C 89 % 1007,3 hPa #8,6 l/m #5:16 h #3:54 h 2,0 UV-I 238 W/m 16,2 km/h (3 Bft)
© 2014 W. Hausmann